Wetterdaten: Freitag, 28.02.2014
Datum Zeit Temp. Aussen +5cm Feuchte Auss Luftdruck Regen Sonnenschein Regendauer UV Solar Windben
28.02.2014 00:00 4,2 C 2,8 C 93 % 1007,8 hPa 0,0 l/m 0 min 0 min 0,0 UV-I 0 W/m 2,6 km/h (1 Bft)
28.02.2014 00:02 4,1 C 2,2 C 93 % 1007,8 hPa 0,0 l/m 0 min 0 min 0,0 UV-I 0 W/m 0,0 km/h (0 Bft)
28.02.2014 00:06 4,0 C 2,2 C 93 % 1007,8 hPa 0,0 l/m 0 min 0 min 0,0 UV-I 0 W/m 0,0 km/h (0 Bft)
28.02.2014 00:08 3,9 C 2,2 C 93 % 1007,8 hPa 0,0 l/m 0 min 0 min 0,0 UV-I 0 W/m 0,0 km/h (0 Bft)
28.02.2014 00:10 3,9 C 2,2 C 93 % 1007,8 hPa 0,0 l/m 0 min 0 min 0,0 UV-I 0 W/m 0,0 km/h (0 Bft)
28.02.2014 00:12 3,8 C 2,2 C 93 % 1007,8 hPa 0,0 l/m 0 min 0 min 0,0 UV-I 0 W/m 0,0 km/h (0 Bft)
28.02.2014 00:14 3,8 C 2,2 C 93 % 1007,8 hPa 0,0 l/m 0 min 0 min 0,0 UV-I 0 W/m 0,0 km/h (0 Bft)
28.02.2014 00:16 3,8 C 2,2 C 93 % 1007,8 hPa 0,0 l/m 0 min 0 min 0,0 UV-I 0 W/m 0,0 km/h (0 Bft)
28.02.2014 00:18 3,7 C 2,2 C 93 % 1007,8 hPa 0,0 l/m 0 min 0 min 0,0 UV-I 0 W/m 0,0 km/h (0 Bft)
28.02.2014 00:20 3,7 C 2,2 C 93 % 1007,8 hPa 0,0 l/m 0 min 0 min 0,0 UV-I 0 W/m 0,0 km/h (0 Bft)
28.02.2014 00:22 3,7 C 2,2 C 93 % 1007,8 hPa 0,0 l/m 0 min 0 min 0,0 UV-I 0 W/m 0,0 km/h (0 Bft)
28.02.2014 00:24 3,7 C 1,7 C 94 % 1007,7 hPa 0,0 l/m 0 min 0 min 0,0 UV-I 0 W/m 0,0 km/h (0 Bft)
28.02.2014 00:26 3,7 C 2,2 C 94 % 1007,7 hPa 0,0 l/m 0 min 0 min 0,0 UV-I 0 W/m 0,0 km/h (0 Bft)
28.02.2014 00:28 3,7 C 1,7 C 94 % 1007,7 hPa 0,0 l/m 0 min 0 min 0,0 UV-I 0 W/m 0,0 km/h (0 Bft)
28.02.2014 00:30 3,6 C 2,2 C 94 % 1007,7 hPa 0,0 l/m 0 min 0 min 0,0 UV-I 0 W/m 0,0 km/h (0 Bft)
28.02.2014 00:32 3,6 C 2,2 C 94 % 1007,7 hPa 0,0 l/m 0 min 0 min 0,0 UV-I 0 W/m 0,0 km/h (0 Bft)
28.02.2014 00:34 3,6 C 2,2 C 94 % 1007,7 hPa 0,0 l/m 0 min 0 min 0,0 UV-I 0 W/m 0,0 km/h (0 Bft)
28.02.2014 00:36 3,6 C 2,2 C 94 % 1007,7 hPa 0,2 l/m 0 min 0 min 0,0 UV-I 0 W/m 0,0 km/h (0 Bft)
28.02.2014 00:38 3,7 C 2,2 C 94 % 1007,6 hPa 0,0 l/m 0 min 0 min 0,0 UV-I 0 W/m 0,0 km/h (0 Bft)
28.02.2014 00:40 3,7 C 2,2 C 94 % 1007,6 hPa 0,0 l/m 0 min 0 min 0,0 UV-I 0 W/m 0,0 km/h (0 Bft)
28.02.2014 00:42 3,7 C 2,2 C 94 % 1007,6 hPa 0,0 l/m 0 min 0 min 0,0 UV-I 0 W/m 0,0 km/h (0 Bft)
28.02.2014 00:44 3,7 C 2,2 C 94 % 1007,6 hPa 0,0 l/m 0 min 0 min 0,0 UV-I 0 W/m 0,0 km/h (0 Bft)
28.02.2014 00:46 3,7 C 2,2 C 94 % 1007,6 hPa 0,0 l/m 0 min 0 min 0,0 UV-I 0 W/m 0,0 km/h (0 Bft)
28.02.2014 00:48 3,8 C 2,2 C 94 % 1007,6 hPa 0,0 l/m 0 min 0 min 0,0 UV-I 0 W/m 0,0 km/h (0 Bft)
28.02.2014 00:50 3,8 C 2,2 C 94 % 1007,6 hPa 0,0 l/m 0 min 0 min 0,0 UV-I 0 W/m 0,0 km/h (0 Bft)
28.02.2014 00:52 3,8 C 2,2 C 94 % 1007,6 hPa 0,0 l/m 0 min 0 min 0,0 UV-I 0 W/m 0,0 km/h (0 Bft)
28.02.2014 00:54 3,8 C 2,2 C 95 % 1007,6 hPa 0,0 l/m 0 min 0 min 0,0 UV-I 0 W/m 0,0 km/h (0 Bft)
28.02.2014 00:56 3,8 C 2,2 C 95 % 1007,6 hPa 0,0 l/m 0 min 0 min 0,0 UV-I 0 W/m 0,0 km/h (0 Bft)
28.02.2014 00:58 3,8 C 2,2 C 95 % 1007,6 hPa 0,0 l/m 0 min 0 min 0,0 UV-I 0 W/m 2,6 km/h (1 Bft)
28.02.2014 01:00 3,8 C 2,2 C 95 % 1007,5 hPa 0,0 l/m 0 min 0 min 0,0 UV-I 0 W/m 0,0 km/h (0 Bft)
28.02.2014 01:02 3,8 C 2,2 C 95 % 1007,5 hPa 0,0 l/m 0 min 0 min 0,0 UV-I 0 W/m 0,0 km/h (0 Bft)
28.02.2014 01:04 3,8 C 2,2 C 95 % 1007,5 hPa 0,0 l/m 0 min 0 min 0,0 UV-I 0 W/m 0,0 km/h (0 Bft)
28.02.2014 01:06 3,7 C 2,2 C 95 % 1007,5 hPa 0,0 l/m 0 min 0 min 0,0 UV-I 0 W/m 0,0 km/h (0 Bft)
28.02.2014 01:08 3,7 C 2,2 C 95 % 1007,5 hPa 0,0 l/m 0 min 0 min 0,0 UV-I 0 W/m 0,0 km/h (0 Bft)
28.02.2014 01:10 3,7 C 2,2 C 95 % 1007,4 hPa 0,0 l/m 0 min 0 min 0,0 UV-I 0 W/m 0,0 km/h (0 Bft)
28.02.2014 01:12 3,7 C 2,2 C 95 % 1007,4 hPa 0,0 l/m 0 min 0 min 0,0 UV-I 0 W/m 0,0 km/h (0 Bft)
28.02.2014 01:14 3,6 C 2,2 C 95 % 1007,4 hPa 0,0 l/m 0 min 0 min 0,0 UV-I 0 W/m 0,0 km/h (0 Bft)
28.02.2014 01:16 3,6 C 2,2 C 95 % 1007,4 hPa 0,0 l/m 0 min 0 min 0,0 UV-I 0 W/m 0,0 km/h (0 Bft)
28.02.2014 01:18 3,6 C 2,2 C 95 % 1007,3 hPa 0,0 l/m 0 min 0 min 0,0 UV-I 0 W/m 0,0 km/h (0 Bft)
28.02.2014 01:20 3,6 C 2,2 C 95 % 1007,4 hPa 0,0 l/m 0 min 0 min 0,0 UV-I 0 W/m 0,0 km/h (0 Bft)
28.02.2014 01:22 3,5 C 1,7 C 95 % 1007,4 hPa 0,0 l/m 0 min 0 min 0,0 UV-I 0 W/m 0,0 km/h (0 Bft)
28.02.2014 01:24 3,6 C 2,2 C 95 % 1007,4 hPa 0,0 l/m 0 min 0 min 0,0 UV-I 0 W/m 2,6 km/h (1 Bft)
28.02.2014 01:26 3,6 C 2,2 C 95 % 1007,3 hPa 0,0 l/m 0 min 0 min 0,0 UV-I 0 W/m 0,0 km/h (0 Bft)
28.02.2014 01:28 3,6 C 1,7 C 95 % 1007,3 hPa 0,0 l/m 0 min 0 min 0,0 UV-I 0 W/m 0,0 km/h (0 Bft)
28.02.2014 01:30 3,6 C 1,7 C 95 % 1007,4 hPa 0,0 l/m 0 min 0 min 0,0 UV-I 0 W/m 0,0 km/h (0 Bft)
28.02.2014 01:32 3,6 C 2,2 C 95 % 1007,3 hPa 0,0 l/m 0 min 0 min 0,0 UV-I 0 W/m 0,0 km/h (0 Bft)
28.02.2014 01:34 3,6 C 1,7 C 95 % 1007,3 hPa 0,0 l/m 0 min 0 min 0,0 UV-I 0 W/m 0,0 km/h (0 Bft)
28.02.2014 01:36 3,6 C 1,7 C 95 % 1007,2 hPa 0,0 l/m 0 min 0 min 0,0 UV-I 0 W/m 0,0 km/h (0 Bft)
28.02.2014 01:38 3,6 C 1,7 C 95 % 1007,3 hPa 0,0 l/m 0 min 0 min 0,0 UV-I 0 W/m 0,0 km/h (0 Bft)
28.02.2014 01:40 3,6 C 1,7 C 95 % 1007,3 hPa 0,0 l/m 0 min 0 min 0,0 UV-I 0 W/m 0,0 km/h (0 Bft)
28.02.2014 01:42 3,6 C 2,2 C 95 % 1007,2 hPa 0,0 l/m 0 min 0 min 0,0 UV-I 0 W/m 0,0 km/h (0 Bft)
28.02.2014 01:44 3,6 C 2,2 C 95 % 1007,2 hPa 0,0 l/m 0 min 0 min 0,0 UV-I 0 W/m 0,0 km/h (0 Bft)
28.02.2014 01:46 3,6 C 2,2 C 95 % 1007,1 hPa 0,0 l/m 0 min 0 min 0,0 UV-I 0 W/m 0,0 km/h (0 Bft)
28.02.2014 01:48 3,6 C 1,7 C 95 % 1007,1 hPa 0,0 l/m 0 min 0 min 0,0 UV-I 0 W/m 0,0 km/h (0 Bft)
28.02.2014 01:50 3,5 C 2,2 C 95 % 1007,1 hPa 0,0 l/m 0 min 0 min 0,0 UV-I 0 W/m 2,6 km/h (1 Bft)
28.02.2014 01:52 3,6 C 2,2 C 95 % 1007,1 hPa 0,0 l/m 0 min 0 min 0,0 UV-I 0 W/m 7,7 km/h (2 Bft)
28.02.2014 01:54 3,5 C 2,2 C 95 % 1007,0 hPa 0,0 l/m 0 min 0 min 0,0 UV-I 0 W/m 0,0 km/h (0 Bft)
28.02.2014 01:56 3,5 C 2,2 C 95 % 1007,1 hPa 0,0 l/m 0 min 0 min 0,0 UV-I 0 W/m 5,1 km/h (1 Bft)
28.02.2014 01:58 3,5 C 2,2 C 95 % 1006,9 hPa 0,0 l/m 0 min 0 min 0,0 UV-I 0 W/m 0,0 km/h (0 Bft)
28.02.2014 02:00 3,5 C 1,7 C 95 % 1006,9 hPa 0,0 l/m 0 min 0 min 0,0 UV-I 0 W/m 0,0 km/h (0 Bft)
28.02.2014 02:02 3,5 C 1,7 C 95 % 1006,9 hPa 0,0 l/m 0 min 0 min 0,0 UV-I 0 W/m 0,0 km/h (0 Bft)
28.02.2014 02:04 3,5 C 1,7 C 95 % 1006,9 hPa 0,0 l/m 0 min 0 min 0,0 UV-I 0 W/m 0,0 km/h (0 Bft)
28.02.2014 02:06 3,4 C 1,7 C 95 % 1006,9 hPa 0,0 l/m 0 min 0 min 0,0 UV-I 0 W/m 0,0 km/h (0 Bft)
28.02.2014 02:08 3,4 C 1,7 C 95 % 1006,9 hPa 0,0 l/m 0 min 0 min 0,0 UV-I 0 W/m 0,0 km/h (0 Bft)
28.02.2014 02:10 3,3 C 1,7 C 95 % 1006,8 hPa 0,0 l/m 0 min 0 min 0,0 UV-I 0 W/m 0,0 km/h (0 Bft)
28.02.2014 02:12 3,3 C 1,7 C 95 % 1006,8 hPa 0,0 l/m 0 min 0 min 0,0 UV-I 0 W/m 0,0 km/h (0 Bft)
28.02.2014 02:14 3,3 C 1,7 C 95 % 1006,8 hPa 0,0 l/m 0 min 0 min 0,0 UV-I 0 W/m 0,0 km/h (0 Bft)
28.02.2014 02:16 3,2 C 1,7 C 95 % 1006,8 hPa 0,0 l/m 0 min 0 min 0,0 UV-I 0 W/m 0,0 km/h (0 Bft)
28.02.2014 02:18 3,2 C 1,1 C 95 % 1006,8 hPa 0,0 l/m 0 min 0 min 0,0 UV-I 0 W/m 0,0 km/h (0 Bft)
28.02.2014 02:20 3,1 C 1,1 C 95 % 1006,7 hPa 0,0 l/m 0 min 0 min 0,0 UV-I 0 W/m 0,0 km/h (0 Bft)
28.02.2014 02:22 3,1 C 1,1 C 95 % 1006,7 hPa 0,0 l/m 0 min 0 min 0,0 UV-I 0 W/m 0,0 km/h (0 Bft)
28.02.2014 02:24 3,0 C 1,1 C 95 % 1006,7 hPa 0,0 l/m 0 min 0 min 0,0 UV-I 0 W/m 0,0 km/h (0 Bft)
28.02.2014 02:26 3,0 C 1,1 C 95 % 1006,6 hPa 0,0 l/m 0 min 0 min 0,0 UV-I 0 W/m 0,0 km/h (0 Bft)
28.02.2014 02:28 2,9 C 1,1 C 95 % 1006,6 hPa 0,0 l/m 0 min 0 min 0,0 UV-I 0 W/m 0,0 km/h (0 Bft)
28.02.2014 02:30 2,9 C 1,1 C 95 % 1006,6 hPa 0,0 l/m 0 min 0 min 0,0 UV-I 0 W/m 0,0 km/h (0 Bft)
28.02.2014 02:32 2,8 C 1,1 C 95 % 1006,6 hPa 0,0 l/m 0 min 0 min 0,0 UV-I 0 W/m 0,0 km/h (0 Bft)
28.02.2014 02:34 2,8 C 1,1 C 95 % 1006,7 hPa 0,0 l/m 0 min 0 min 0,0 UV-I 0 W/m 0,0 km/h (0 Bft)
28.02.2014 02:36 2,7 C 1,1 C 95 % 1006,6 hPa 0,0 l/m 0 min 0 min 0,0 UV-I 0 W/m 0,0 km/h (0 Bft)
28.02.2014 02:38 2,7 C 1,1 C 95 % 1006,6 hPa 0,0 l/m 0 min 0 min 0,0 UV-I 0 W/m 0,0 km/h (0 Bft)
28.02.2014 02:40 2,6 C 0,6 C 95 % 1006,6 hPa 0,0 l/m 0 min 0 min 0,0 UV-I 0 W/m 0,0 km/h (0 Bft)
28.02.2014 02:42 2,6 C 0,6 C 95 % 1006,5 hPa 0,0 l/m 0 min 0 min 0,0 UV-I 0 W/m 0,0 km/h (0 Bft)
28.02.2014 02:44 2,5 C 0,6 C 95 % 1006,5 hPa 0,0 l/m 0 min 0 min 0,0 UV-I 0 W/m 0,0 km/h (0 Bft)
28.02.2014 02:46 2,5 C 0,6 C 95 % 1006,5 hPa 0,0 l/m 0 min 0 min 0,0 UV-I 0 W/m 0,0 km/h (0 Bft)
28.02.2014 02:48 2,5 C 0,6 C 95 % 1006,5 hPa 0,0 l/m 0 min 0 min 0,0 UV-I 0 W/m 0,0 km/h (0 Bft)
28.02.2014 02:50 2,4 C 0,6 C 95 % 1006,5 hPa 0,0 l/m 0 min 0 min 0,0 UV-I 0 W/m 0,0 km/h (0 Bft)
28.02.2014 02:52 2,4 C 0,6 C 95 % 1006,5 hPa 0,0 l/m 0 min 0 min 0,0 UV-I 0 W/m 0,0 km/h (0 Bft)
28.02.2014 02:54 2,4 C 0,6 C 95 % 1006,4 hPa 0,0 l/m 0 min 0 min 0,0 UV-I 0 W/m 0,0 km/h (0 Bft)
28.02.2014 02:56 2,4 C 0,6 C 95 % 1006,4 hPa 0,0 l/m 0 min 0 min 0,0 UV-I 0 W/m 0,0 km/h (0 Bft)
28.02.2014 02:58 2,4 C 0,6 C 95 % 1006,4 hPa 0,0 l/m 0 min 0 min 0,0 UV-I 0 W/m 0,0 km/h (0 Bft)
28.02.2014 03:00 2,4 C 0,6 C 95 % 1006,4 hPa 0,0 l/m 0 min 0 min 0,0 UV-I 0 W/m 0,0 km/h (0 Bft)
28.02.2014 03:02 2,4 C 0,6 C 96 % 1006,3 hPa 0,0 l/m 0 min 0 min 0,0 UV-I 0 W/m 0,0 km/h (0 Bft)
28.02.2014 03:04 2,4 C 0,6 C 96 % 1006,3 hPa 0,0 l/m 0 min 0 min 0,0 UV-I 0 W/m 0,0 km/h (0 Bft)
28.02.2014 03:06 2,3 C 0,6 C 96 % 1006,3 hPa 0,0 l/m 0 min 0 min 0,0 UV-I 0 W/m 0,0 km/h (0 Bft)
28.02.2014 03:08 2,3 C 0,6 C 96 % 1006,2 hPa 0,0 l/m 0 min 0 min 0,0 UV-I 0 W/m 0,0 km/h (0 Bft)
28.02.2014 03:10 2,3 C 0,6 C 96 % 1006,1 hPa 0,0 l/m 0 min 0 min 0,0 UV-I 0 W/m 0,0 km/h (0 Bft)
28.02.2014 03:12 2,3 C 0,6 C 96 % 1006,2 hPa 0,0 l/m 0 min 0 min 0,0 UV-I 0 W/m 0,0 km/h (0 Bft)
28.02.2014 03:14 2,4 C 0,6 C 96 % 1006,1 hPa 0,0 l/m 0 min 0 min 0,0 UV-I 0 W/m 0,0 km/h (0 Bft)
28.02.2014 03:16 2,3 C 0,6 C 96 % 1006,2 hPa 0,0 l/m 0 min 0 min 0,0 UV-I 0 W/m 0,0 km/h (0 Bft)
28.02.2014 03:18 2,3 C 0,6 C 96 % 1006,2 hPa 0,0 l/m 0 min 0 min 0,0 UV-I 0 W/m 0,0 km/h (0 Bft)
28.02.2014 03:20 2,3 C 0,6 C 96 % 1006,1 hPa 0,0 l/m 0 min 0 min 0,0 UV-I 0 W/m 0,0 km/h (0 Bft)
28.02.2014 03:22 2,3 C 0,6 C 96 % 1006,1 hPa 0,0 l/m 0 min 0 min 0,0 UV-I 0 W/m 0,0 km/h (0 Bft)
28.02.2014 03:24 2,3 C 0,6 C 96 % 1006,1 hPa 0,0 l/m 0 min 0 min 0,0 UV-I 0 W/m 0,0 km/h (0 Bft)
28.02.2014 03:26 2,3 C 0,6 C 96 % 1006,2 hPa 0,0 l/m 0 min 0 min 0,0 UV-I 0 W/m 0,0 km/h (0 Bft)
28.02.2014 03:28 2,2 C 0,6 C 96 % 1006,1 hPa 0,0 l/m 0 min 0 min 0,0 UV-I 0 W/m 0,0 km/h (0 Bft)
28.02.2014 03:30 2,2 C 0,6 C 96 % 1006,1 hPa 0,0 l/m 0 min 0 min 0,0 UV-I 0 W/m 0,0 km/h (0 Bft)
28.02.2014 03:32 2,3 C 0,6 C 96 % 1006,0 hPa 0,0 l/m 0 min 0 min 0,0 UV-I 0 W/m 0,0 km/h (0 Bft)
28.02.2014 03:34 2,3 C 0,6 C 96 % 1006,1 hPa 0,0 l/m 0 min 0 min 0,0 UV-I 0 W/m 0,0 km/h (0 Bft)
28.02.2014 03:36 2,3 C 0,6 C 96 % 1006,0 hPa 0,0 l/m 0 min 0 min 0,0 UV-I 0 W/m 0,0 km/h (0 Bft)
28.02.2014 03:38 2,3 C 0,6 C 96 % 1006,0 hPa 0,0 l/m 0 min 0 min 0,0 UV-I 0 W/m 0,0 km/h (0 Bft)
28.02.2014 03:40 2,4 C 0,6 C 96 % 1006,0 hPa 0,0 l/m 0 min 0 min 0,0 UV-I 0 W/m 0,0 km/h (0 Bft)
28.02.2014 03:42 2,3 C 0,6 C 96 % 1005,9 hPa 0,0 l/m 0 min 0 min 0,0 UV-I 0 W/m 0,0 km/h (0 Bft)
28.02.2014 03:44 2,3 C 0,6 C 96 % 1005,9 hPa 0,0 l/m 0 min 0 min 0,0 UV-I 0 W/m 0,0 km/h (0 Bft)
28.02.2014 03:46 2,3 C 0,6 C 96 % 1005,9 hPa 0,0 l/m 0 min 0 min 0,0 UV-I 0 W/m 0,0 km/h (0 Bft)
28.02.2014 03:48 2,3 C 0,6 C 96 % 1005,8 hPa 0,0 l/m 0 min 0 min 0,0 UV-I 0 W/m 0,0 km/h (0 Bft)
28.02.2014 03:50 2,3 C 0,6 C 96 % 1005,8 hPa 0,0 l/m 0 min 0 min 0,0 UV-I 0 W/m 0,0 km/h (0 Bft)
28.02.2014 03:52 2,3 C 0,6 C 96 % 1005,8 hPa 0,0 l/m 0 min 0 min 0,0 UV-I 0 W/m 0,0 km/h (0 Bft)
28.02.2014 03:54 2,3 C 0,6 C 96 % 1005,8 hPa 0,0 l/m 0 min 0 min 0,0 UV-I 0 W/m 0,0 km/h (0 Bft)
28.02.2014 03:56 2,3 C 0,6 C 96 % 1005,8 hPa 0,0 l/m 0 min 0 min 0,0 UV-I 0 W/m 0,0 km/h (0 Bft)
28.02.2014 03:58 2,3 C 0,6 C 96 % 1005,8 hPa 0,0 l/m 0 min 0 min 0,0 UV-I 0 W/m 0,0 km/h (0 Bft)
28.02.2014 04:00 2,3 C 0,6 C 96 % 1005,7 hPa 0,0 l/m 0 min 0 min 0,0 UV-I 0 W/m 0,0 km/h (0 Bft)
28.02.2014 04:02 2,3 C 0,6 C 96 % 1005,8 hPa 0,0 l/m 0 min 0 min 0,0 UV-I 0 W/m 0,0 km/h (0 Bft)
28.02.2014 04:04 2,3 C 0,6 C 96 % 1005,7 hPa 0,0 l/m 0 min 0 min 0,0 UV-I 0 W/m 0,0 km/h (0 Bft)
28.02.2014 04:06 2,3 C 0,6 C 96 % 1005,7 hPa 0,0 l/m 0 min 0 min 0,0 UV-I 0 W/m 0,0 km/h (0 Bft)
28.02.2014 04:08 2,3 C 0,6 C 96 % 1005,9 hPa 0,0 l/m 0 min 0 min 0,0 UV-I 0 W/m 0,0 km/h (0 Bft)
28.02.2014 04:10 2,3 C 0,6 C 96 % 1005,7 hPa 0,0 l/m 0 min 0 min 0,0 UV-I 0 W/m 0,0 km/h (0 Bft)
28.02.2014 04:12 2,3 C 0,6 C 96 % 1005,7 hPa 0,0 l/m 0 min 0 min 0,0 UV-I 0 W/m 0,0 km/h (0 Bft)
28.02.2014 04:14 2,3 C 0,6 C 97 % 1005,8 hPa 0,0 l/m 0 min 0 min 0,0 UV-I 0 W/m 0,0 km/h (0 Bft)
28.02.2014 04:16 2,3 C 1,1 C 97 % 1005,7 hPa 0,0 l/m 0 min 0 min 0,0 UV-I 0 W/m 0,0 km/h (0 Bft)
28.02.2014 04:18 2,3 C 1,1 C 97 % 1005,7 hPa 0,0 l/m 0 min 0 min 0,0 UV-I 0 W/m 0,0 km/h (0 Bft)
28.02.2014 04:20 2,3 C 1,1 C 97 % 1005,7 hPa 0,0 l/m 0 min 0 min 0,0 UV-I 0 W/m 0,0 km/h (0 Bft)
28.02.2014 04:22 2,3 C 1,1 C 97 % 1005,7 hPa 0,0 l/m 0 min 0 min 0,0 UV-I 0 W/m 2,6 km/h (1 Bft)
28.02.2014 04:24 2,3 C 1,1 C 97 % 1005,6 hPa 0,0 l/m 0 min 0 min 0,0 UV-I 0 W/m 0,0 km/h (0 Bft)
28.02.2014 04:26 2,3 C 1,1 C 97 % 1005,6 hPa 0,0 l/m 0 min 0 min 0,0 UV-I 0 W/m 0,0 km/h (0 Bft)
28.02.2014 04:28 2,3 C 1,1 C 97 % 1005,6 hPa 0,0 l/m 0 min 0 min 0,0 UV-I 0 W/m 0,0 km/h (0 Bft)
28.02.2014 04:30 2,3 C 1,1 C 97 % 1005,6 hPa 0,0 l/m 0 min 0 min 0,0 UV-I 0 W/m 0,0 km/h (0 Bft)
28.02.2014 04:32 2,3 C 1,1 C 97 % 1005,6 hPa 0,0 l/m 0 min 0 min 0,0 UV-I 0 W/m 0,0 km/h (0 Bft)
28.02.2014 04:34 2,3 C 1,1 C 97 % 1005,5 hPa 0,0 l/m 0 min 0 min 0,0 UV-I 0 W/m 0,0 km/h (0 Bft)
28.02.2014 04:36 2,3 C 1,1 C 97 % 1005,5 hPa 0,0 l/m 0 min 0 min 0,0 UV-I 0 W/m 0,0 km/h (0 Bft)
28.02.2014 04:38 2,3 C 1,1 C 97 % 1005,5 hPa 0,0 l/m 0 min 0 min 0,0 UV-I 0 W/m 0,0 km/h (0 Bft)
28.02.2014 04:40 2,3 C 1,1 C 97 % 1005,5 hPa 0,0 l/m 0 min 0 min 0,0 UV-I 0 W/m 2,6 km/h (1 Bft)
28.02.2014 04:42 2,3 C 1,1 C 97 % 1005,5 hPa 0,0 l/m 0 min 2 min 0,0 UV-I 0 W/m 0,0 km/h (0 Bft)
28.02.2014 04:44 2,3 C 1,1 C 97 % 1005,5 hPa 0,0 l/m 0 min 2 min 0,0 UV-I 0 W/m 0,0 km/h (0 Bft)
28.02.2014 04:46 2,3 C 1,7 C 97 % 1005,5 hPa 0,0 l/m 0 min 0 min 0,0 UV-I 0 W/m 0,0 km/h (0 Bft)
28.02.2014 04:48 2,4 C 1,7 C 97 % 1005,5 hPa 0,0 l/m 0 min 0 min 0,0 UV-I 0 W/m 0,0 km/h (0 Bft)
28.02.2014 04:50 2,4 C 1,7 C 97 % 1005,5 hPa 0,0 l/m 0 min 0 min 0,0 UV-I 0 W/m 0,0 km/h (0 Bft)
28.02.2014 04:52 2,4 C 1,7 C 97 % 1005,4 hPa 0,0 l/m 0 min 0 min 0,0 UV-I 0 W/m 0,0 km/h (0 Bft)
28.02.2014 04:54 2,4 C 1,7 C 97 % 1005,4 hPa 0,0 l/m 0 min 0 min 0,0 UV-I 0 W/m 2,6 km/h (1 Bft)
28.02.2014 04:56 2,4 C 1,7 C 97 % 1005,4 hPa 0,0 l/m 0 min 2 min 0,0 UV-I 0 W/m 0,0 km/h (0 Bft)
28.02.2014 04:58 2,4 C 1,7 C 97 % 1005,4 hPa 0,0 l/m 0 min 0 min 0,0 UV-I 0 W/m 0,0 km/h (0 Bft)
28.02.2014 05:00 2,4 C 1,7 C 97 % 1005,4 hPa 0,0 l/m 0 min 0 min 0,0 UV-I 0 W/m 2,6 km/h (1 Bft)
28.02.2014 05:02 2,4 C 1,7 C 97 % 1005,2 hPa 0,0 l/m 0 min 2 min 0,0 UV-I 0 W/m 0,0 km/h (0 Bft)
28.02.2014 05:04 2,4 C 1,7 C 97 % 1005,4 hPa 0,0 l/m 0 min 2 min 0,0 UV-I 0 W/m 0,0 km/h (0 Bft)
28.02.2014 05:06 2,5 C 1,7 C 97 % 1005,5 hPa 0,0 l/m 0 min 2 min 0,0 UV-I 0 W/m 0,0 km/h (0 Bft)
28.02.2014 05:08 2,6 C 1,7 C 97 % 1005,5 hPa 0,0 l/m 0 min 0 min 0,0 UV-I 0 W/m 0,0 km/h (0 Bft)
28.02.2014 05:10 2,6 C 1,7 C 97 % 1005,4 hPa 0,0 l/m 0 min 0 min 0,0 UV-I 0 W/m 0,0 km/h (0 Bft)
28.02.2014 05:12 2,6 C 1,7 C 97 % 1005,4 hPa 0,0 l/m 0 min 2 min 0,0 UV-I 0 W/m 0,0 km/h (0 Bft)
28.02.2014 05:14 2,6 C 1,7 C 97 % 1005,4 hPa 0,0 l/m 0 min 2 min 0,0 UV-I 0 W/m 0,0 km/h (0 Bft)
28.02.2014 05:16 2,6 C 1,7 C 97 % 1005,2 hPa 0,0 l/m 0 min 2 min 0,0 UV-I 0 W/m 0,0 km/h (0 Bft)
28.02.2014 05:18 2,7 C 1,7 C 97 % 1005,2 hPa 0,0 l/m 0 min 0 min 0,0 UV-I 0 W/m 0,0 km/h (0 Bft)
28.02.2014 05:20 2,7 C 1,7 C 97 % 1005,1 hPa 0,0 l/m 0 min 2 min 0,0 UV-I 0 W/m 0,0 km/h (0 Bft)
28.02.2014 05:22 2,7 C 2,2 C 97 % 1005,1 hPa 0,0 l/m 0 min 2 min 0,0 UV-I 0 W/m 0,0 km/h (0 Bft)
28.02.2014 05:24 2,7 C 2,2 C 97 % 1005,1 hPa 0,0 l/m 0 min 0 min 0,0 UV-I 0 W/m 0,0 km/h (0 Bft)
28.02.2014 05:26 2,7 C 2,2 C 97 % 1005,0 hPa 0,0 l/m 0 min 0 min 0,0 UV-I 0 W/m 0,0 km/h (0 Bft)
28.02.2014 05:28 2,7 C 2,2 C 97 % 1005,0 hPa 0,0 l/m 0 min 0 min 0,0 UV-I 0 W/m 0,0 km/h (0 Bft)
28.02.2014 05:30 2,8 C 2,2 C 97 % 1004,9 hPa 0,0 l/m 0 min 2 min 0,0 UV-I 0 W/m 0,0 km/h (0 Bft)
28.02.2014 05:32 2,8 C 2,2 C 97 % 1004,9 hPa 0,0 l/m 0 min 0 min 0,0 UV-I 0 W/m 0,0 km/h (0 Bft)
28.02.2014 05:34 2,8 C 2,2 C 97 % 1004,9 hPa 0,0 l/m 0 min 2 min 0,0 UV-I 0 W/m 0,0 km/h (0 Bft)
28.02.2014 05:36 2,8 C 2,2 C 97 % 1004,9 hPa 0,0 l/m 0 min 0 min 0,0 UV-I 0 W/m 0,0 km/h (0 Bft)
28.02.2014 05:38 2,8 C 2,2 C 97 % 1004,9 hPa 0,0 l/m 0 min 0 min 0,0 UV-I 0 W/m 0,0 km/h (0 Bft)
28.02.2014 05:40 2,9 C 2,2 C 97 % 1004,9 hPa 0,0 l/m 0 min 0 min 0,0 UV-I 0 W/m 0,0 km/h (0 Bft)
28.02.2014 05:42 2,9 C 2,2 C 97 % 1004,9 hPa 0,0 l/m 0 min 0 min 0,0 UV-I 0 W/m 0,0 km/h (0 Bft)
28.02.2014 05:44 2,9 C 2,2 C 97 % 1004,8 hPa 0,0 l/m 0 min 0 min 0,0 UV-I 0 W/m 0,0 km/h (0 Bft)
28.02.2014 05:46 3,0 C 2,2 C 97 % 1004,8 hPa 0,0 l/m 0 min 0 min 0,0 UV-I 0 W/m 0,0 km/h (0 Bft)
28.02.2014 05:48 3,0 C 2,2 C 97 % 1004,8 hPa 0,0 l/m 0 min 0 min 0,0 UV-I 0 W/m 0,0 km/h (0 Bft)
28.02.2014 05:50 3,0 C 2,2 C 97 % 1004,8 hPa 0,0 l/m 0 min 0 min 0,0 UV-I 0 W/m 2,6 km/h (1 Bft)
28.02.2014 05:52 3,1 C 2,2 C 97 % 1004,7 hPa 0,0 l/m 0 min 0 min 0,0 UV-I 0 W/m 2,6 km/h (1 Bft)
28.02.2014 05:54 3,1 C 2,2 C 97 % 1004,7 hPa 0,0 l/m 0 min 2 min 0,0 UV-I 0 W/m 0,0 km/h (0 Bft)
28.02.2014 05:56 3,1 C 2,2 C 97 % 1004,7 hPa 0,0 l/m 0 min 0 min 0,0 UV-I 0 W/m 0,0 km/h (0 Bft)
28.02.2014 05:58 3,1 C 2,2 C 97 % 1004,7 hPa 0,0 l/m 0 min 0 min 0,0 UV-I 0 W/m 0,0 km/h (0 Bft)
28.02.2014 06:00 3,1 C 2,2 C 97 % 1004,8 hPa 0,0 l/m 0 min 0 min 0,0 UV-I 0 W/m 0,0 km/h (0 Bft)
28.02.2014 06:02 3,1 C 2,2 C 97 % 1004,7 hPa 0,0 l/m 0 min 0 min 0,0 UV-I 0 W/m 0,0 km/h (0 Bft)
28.02.2014 06:04 3,2 C 2,2 C 97 % 1004,7 hPa 0,0 l/m 0 min 0 min 0,0 UV-I 0 W/m 0,0 km/h (0 Bft)
28.02.2014 06:06 3,2 C 2,2 C 97 % 1004,7 hPa 0,0 l/m 0 min 0 min 0,0 UV-I 0 W/m 2,6 km/h (1 Bft)
28.02.2014 06:08 3,2 C 2,2 C 97 % 1004,6 hPa 0,0 l/m 0 min 0 min 0,0 UV-I 0 W/m 2,6 km/h (1 Bft)
28.02.2014 06:10 3,2 C 2,2 C 97 % 1004,5 hPa 0,0 l/m 0 min 2 min 0,0 UV-I 0 W/m 2,6 km/h (1 Bft)
28.02.2014 06:12 3,2 C 2,2 C 97 % 1004,5 hPa 0,0 l/m 0 min 2 min 0,0 UV-I 0 W/m 0,0 km/h (0 Bft)
28.02.2014 06:14 3,2 C 2,2 C 97 % 1004,5 hPa 0,0 l/m 0 min 2 min 0,0 UV-I 0 W/m 0,0 km/h (0 Bft)
28.02.2014 06:16 3,2 C 2,2 C 97 % 1004,5 hPa 0,0 l/m 0 min 0 min 0,0 UV-I 0 W/m 0,0 km/h (0 Bft)
28.02.2014 06:18 3,3 C 2,2 C 97 % 1004,4 hPa 0,0 l/m 0 min 0 min 0,0 UV-I 0 W/m 0,0 km/h (0 Bft)
28.02.2014 06:20 3,3 C 2,2 C 97 % 1004,3 hPa 0,0 l/m 0 min 0 min 0,0 UV-I 0 W/m 0,0 km/h (0 Bft)
28.02.2014 06:22 3,3 C 2,2 C 97 % 1004,3 hPa 0,0 l/m 0 min 0 min 0,0 UV-I 0 W/m 0,0 km/h (0 Bft)
28.02.2014 06:24 3,3 C 2,2 C 97 % 1004,3 hPa 0,0 l/m 0 min 0 min 0,0 UV-I 0 W/m 2,6 km/h (1 Bft)
28.02.2014 06:26 3,3 C 2,2 C 97 % 1004,2 hPa 0,0 l/m 0 min 0 min 0,0 UV-I 0 W/m 0,0 km/h (0 Bft)
28.02.2014 06:28 3,3 C 2,2 C 97 % 1004,3 hPa 0,0 l/m 0 min 0 min 0,0 UV-I 0 W/m 0,0 km/h (0 Bft)
28.02.2014 06:30 3,3 C 2,2 C 97 % 1004,2 hPa 0,0 l/m 0 min 0 min 0,0 UV-I 0 W/m 2,6 km/h (1 Bft)
28.02.2014 06:32 3,3 C 2,2 C 97 % 1004,2 hPa 0,0 l/m 0 min 0 min 0,0 UV-I 0 W/m 0,0 km/h (0 Bft)
28.02.2014 06:34 3,3 C 2,2 C 97 % 1004,2 hPa 0,0 l/m 0 min 0 min 0,0 UV-I 0 W/m 5,1 km/h (1 Bft)
28.02.2014 06:36 3,3 C 2,2 C 97 % 1004,2 hPa 0,0 l/m 0 min 0 min 0,0 UV-I 0 W/m 2,6 km/h (1 Bft)
28.02.2014 06:38 3,3 C 2,2 C 97 % 1004,1 hPa 0,0 l/m 0 min 0 min 0,0 UV-I 0 W/m 5,1 km/h (1 Bft)
28.02.2014 06:40 3,3 C 2,2 C 97 % 1004,1 hPa 0,0 l/m 0 min 0 min 0,0 UV-I 0 W/m 0,0 km/h (0 Bft)
28.02.2014 06:42 3,3 C 1,7 C 97 % 1004,0 hPa 0,0 l/m 0 min 0 min 0,0 UV-I 0 W/m 0,0 km/h (0 Bft)
28.02.2014 06:44 3,3 C 1,7 C 97 % 1004,0 hPa 0,0 l/m 0 min 0 min 0,0 UV-I 0 W/m 2,6 km/h (1 Bft)
28.02.2014 06:46 3,3 C 1,7 C 97 % 1004,0 hPa 0,0 l/m 0 min 0 min 0,0 UV-I 0 W/m 0,0 km/h (0 Bft)
28.02.2014 06:48 3,3 C 1,7 C 97 % 1003,9 hPa 0,0 l/m 0 min 0 min 0,0 UV-I 0 W/m 2,6 km/h (1 Bft)
28.02.2014 06:50 3,3 C 1,7 C 97 % 1003,8 hPa 0,0 l/m 0 min 0 min 0,0 UV-I 0 W/m 2,6 km/h (1 Bft)
28.02.2014 06:52 3,3 C 1,7 C 97 % 1003,9 hPa 0,0 l/m 0 min 0 min 0,0 UV-I 0 W/m 0,0 km/h (0 Bft)
28.02.2014 06:54 3,2 C 1,7 C 97 % 1003,8 hPa 0,0 l/m 0 min 0 min 0,0 UV-I 0 W/m 0,0 km/h (0 Bft)
28.02.2014 06:56 3,2 C 1,7 C 97 % 1003,9 hPa 0,0 l/m 0 min 0 min 0,0 UV-I 0 W/m 0,0 km/h (0 Bft)
28.02.2014 06:58 3,2 C 1,1 C 97 % 1003,8 hPa 0,0 l/m 0 min 0 min 0,0 UV-I 0 W/m 0,0 km/h (0 Bft)
28.02.2014 07:00 3,2 C 1,7 C 97 % 1003,8 hPa 0,0 l/m 0 min 0 min 0,0 UV-I 0 W/m 7,7 km/h (2 Bft)
28.02.2014 07:02 3,2 C 1,1 C 97 % 1003,8 hPa 0,0 l/m 0 min 0 min 0,0 UV-I 0 W/m 2,6 km/h (1 Bft)
28.02.2014 07:04 3,1 C 1,1 C 97 % 1003,7 hPa 0,0 l/m 0 min 0 min 0,0 UV-I 0 W/m 0,0 km/h (0 Bft)
28.02.2014 07:06 3,1 C 1,1 C 97 % 1003,7 hPa 0,0 l/m 0 min 0 min 0,0 UV-I 0 W/m 0,0 km/h (0 Bft)
28.02.2014 07:08 3,1 C 1,1 C 97 % 1003,8 hPa 0,0 l/m 0 min 0 min 0,0 UV-I 0 W/m 10,3 km/h (2 Bft)
28.02.2014 07:10 3,1 C 1,1 C 97 % 1003,8 hPa 0,0 l/m 0 min 0 min 0,0 UV-I 0 W/m 7,7 km/h (2 Bft)
28.02.2014 07:12 3,0 C 1,1 C 97 % 1003,8 hPa 0,0 l/m 0 min 0 min 0,0 UV-I 0 W/m 7,7 km/h (2 Bft)
28.02.2014 07:14 3,0 C 1,1 C 97 % 1003,8 hPa 0,0 l/m 0 min 0 min 0,0 UV-I 0 W/m 0,0 km/h (0 Bft)
28.02.2014 07:16 3,0 C 1,7 C 97 % 1003,8 hPa 0,0 l/m 0 min 0 min 0,0 UV-I 0 W/m 7,7 km/h (2 Bft)
28.02.2014 07:18 2,9 C 1,7 C 97 % 1003,7 hPa 0,0 l/m 0 min 0 min 0,0 UV-I 0 W/m 5,1 km/h (1 Bft)
28.02.2014 07:20 2,9 C 1,7 C 97 % 1003,8 hPa 0,0 l/m 0 min 0 min 0,0 UV-I 0 W/m 2,6 km/h (1 Bft)
28.02.2014 07:22 2,9 C 1,7 C 97 % 1003,7 hPa 0,0 l/m 0 min 0 min 0,0 UV-I 5 W/m 5,1 km/h (1 Bft)
28.02.2014 07:24 2,9 C 1,7 C 97 % 1003,8 hPa 0,0 l/m 0 min 0 min 0,0 UV-I 5 W/m 5,1 km/h (1 Bft)
28.02.2014 07:26 2,9 C 1,7 C 97 % 1003,8 hPa 0,0 l/m 0 min 0 min 0,0 UV-I 5 W/m 7,7 km/h (2 Bft)
28.02.2014 07:28 2,9 C 1,7 C 97 % 1003,8 hPa 0,0 l/m 0 min 0 min 0,0 UV-I 5 W/m 7,7 km/h (2 Bft)
28.02.2014 07:30 2,9 C 1,7 C 97 % 1003,8 hPa 0,0 l/m 0 min 0 min 0,0 UV-I 7 W/m 7,7 km/h (2 Bft)
28.02.2014 07:32 2,9 C 1,7 C 97 % 1003,8 hPa 0,0 l/m 0 min 0 min 0,0 UV-I 7 W/m 7,7 km/h (2 Bft)
28.02.2014 07:34 2,9 C 1,7 C 97 % 1003,8 hPa 0,0 l/m 0 min 0 min 0,0 UV-I 7 W/m 0,0 km/h (0 Bft)
28.02.2014 07:36 2,9 C 1,7 C 97 % 1003,8 hPa 0,0 l/m 0 min 0 min 0,0 UV-I 7 W/m 0,0 km/h (0 Bft)
28.02.2014 07:38 2,9 C 1,7 C 97 % 1003,7 hPa 0,0 l/m 0 min 0 min 0,0 UV-I 9 W/m 0,0 km/h (0 Bft)
28.02.2014 07:40 2,9 C 1,7 C 97 % 1003,7 hPa 0,0 l/m 0 min 0 min 0,0 UV-I 9 W/m 0,0 km/h (0 Bft)
28.02.2014 07:42 2,8 C 1,7 C 97 % 1003,7 hPa 0,0 l/m 0 min 0 min 0,0 UV-I 11 W/m 0,0 km/h (0 Bft)
28.02.2014 07:44 2,8 C 1,7 C 97 % 1003,7 hPa 0,0 l/m 0 min 0 min 0,0 UV-I 11 W/m 0,0 km/h (0 Bft)
28.02.2014 07:46 2,8 C 1,7 C 97 % 1003,6 hPa 0,0 l/m 0 min 0 min 0,0 UV-I 12 W/m 7,7 km/h (2 Bft)
28.02.2014 07:48 2,8 C 1,7 C 97 % 1003,5 hPa 0,0 l/m 0 min 0 min 0,0 UV-I 12 W/m 10,3 km/h (2 Bft)
28.02.2014 07:50 2,8 C 1,1 C 97 % 1003,6 hPa 0,0 l/m 0 min 0 min 0,0 UV-I 14 W/m 5,1 km/h (1 Bft)
28.02.2014 07:52 2,8 C 1,7 C 97 % 1003,6 hPa 0,0 l/m 0 min 0 min 0,0 UV-I 21 W/m 7,7 km/h (2 Bft)
28.02.2014 07:54 2,8 C 1,7 C 97 % 1003,6 hPa 0,0 l/m 0 min 0 min 0,0 UV-I 30 W/m 7,7 km/h (2 Bft)
28.02.2014 07:56 2,8 C 1,7 C 97 % 1003,5 hPa 0,0 l/m 0 min 0 min 0,0 UV-I 32 W/m 5,1 km/h (1 Bft)
28.02.2014 07:58 2,8 C 1,7 C 97 % 1003,6 hPa 0,0 l/m 0 min 0 min 0,0 UV-I 25 W/m 2,6 km/h (1 Bft)
28.02.2014 08:00 2,8 C 1,7 C 97 % 1003,5 hPa 0,0 l/m 0 min 0 min 0,0 UV-I 25 W/m 0,0 km/h (0 Bft)
28.02.2014 08:02 2,8 C 1,7 C 97 % 1003,5 hPa 0,0 l/m 0 min 0 min 0,0 UV-I 25 W/m 5,1 km/h (1 Bft)
28.02.2014 08:04 2,8 C 1,7 C 97 % 1003,6 hPa 0,0 l/m 0 min 0 min 0,0 UV-I 25 W/m 0,0 km/h (0 Bft)
28.02.2014 08:06 2,8 C 1,7 C 97 % 1003,5 hPa 0,0 l/m 0 min 0 min 0,0 UV-I 26 W/m 12,9 km/h (3 Bft)
28.02.2014 08:08 2,9 C 1,7 C 97 % 1003,4 hPa 0,0 l/m 0 min 0 min 0,0 UV-I 32 W/m 5,1 km/h (1 Bft)
28.02.2014 08:10 2,9 C 2,2 C 97 % 1003,5 hPa 0,0 l/m 0 min 0 min 0,0 UV-I 35 W/m 7,7 km/h (2 Bft)
28.02.2014 08:12 2,9 C 2,2 C 97 % 1003,4 hPa 0,0 l/m 0 min 0 min 0,0 UV-I 39 W/m 2,6 km/h (1 Bft)
28.02.2014 08:14 2,9 C 2,2 C 97 % 1003,4 hPa 0,0 l/m 0 min 0 min 0,0 UV-I 44 W/m 10,3 km/h (2 Bft)
28.02.2014 08:16 2,9 C 2,2 C 97 % 1003,4 hPa 0,0 l/m 0 min 0 min 0,0 UV-I 46 W/m 10,3 km/h (2 Bft)
28.02.2014 08:18 2,9 C 2,2 C 97 % 1003,3 hPa 0,0 l/m 0 min 0 min 0,0 UV-I 42 W/m 12,9 km/h (3 Bft)
28.02.2014 08:20 3,0 C 2,2 C 97 % 1003,3 hPa 0,0 l/m 0 min 0 min 0,0 UV-I 39 W/m 10,3 km/h (2 Bft)
28.02.2014 08:22 3,0 C 2,2 C 97 % 1003,3 hPa 0,0 l/m 0 min 0 min 0,0 UV-I 35 W/m 12,9 km/h (3 Bft)
28.02.2014 08:24 3,0 C 1,7 C 97 % 1003,3 hPa 0,0 l/m 0 min 0 min 0,0 UV-I 37 W/m 10,3 km/h (2 Bft)
28.02.2014 08:26 3,0 C 1,7 C 97 % 1003,2 hPa 0,0 l/m 0 min 0 min 0,0 UV-I 53 W/m 12,9 km/h (3 Bft)
28.02.2014 08:28 3,1 C 1,7 C 97 % 1003,2 hPa 0,0 l/m 0 min 0 min 0,0 UV-I 37 W/m 7,7 km/h (2 Bft)
28.02.2014 08:30 3,1 C 1,7 C 97 % 1003,2 hPa 0,0 l/m 0 min 0 min 0,0 UV-I 39 W/m 10,3 km/h (2 Bft)
28.02.2014 08:32 3,1 C 1,7 C 97 % 1003,2 hPa 0,0 l/m 0 min 0 min 0,0 UV-I 53 W/m 12,9 km/h (3 Bft)
28.02.2014 08:34 3,1 C 1,7 C 97 % 1003,2 hPa 0,0 l/m 2 min 0 min 0,0 UV-I 107 W/m 12,9 km/h (3 Bft)
28.02.2014 08:36 3,1 C 1,7 C 97 % 1003,2 hPa 0,0 l/m 2 min 0 min 0,0 UV-I 113 W/m 7,7 km/h (2 Bft)
28.02.2014 08:38 3,1 C 1,7 C 97 % 1003,1 hPa 0,0 l/m 0 min 0 min 0,0 UV-I 47 W/m 7,7 km/h (2 Bft)
28.02.2014 08:40 3,1 C 1,7 C 97 % 1003,1 hPa 0,0 l/m 0 min 0 min 0,0 UV-I 88 W/m 7,7 km/h (2 Bft)
28.02.2014 08:42 3,1 C 2,2 C 97 % 1003,1 hPa 0,0 l/m 2 min 0 min 0,0 UV-I 128 W/m 5,1 km/h (1 Bft)
28.02.2014 08:44 3,2 C 2,2 C 97 % 1003,2 hPa 0,0 l/m 2 min 0 min 0,0 UV-I 134 W/m 12,9 km/h (3 Bft)
28.02.2014 08:46 3,2 C 2,2 C 97 % 1003,1 hPa 0,0 l/m 2 min 0 min 0,0 UV-I 141 W/m 10,3 km/h (2 Bft)
28.02.2014 08:48 3,3 C 2,2 C 97 % 1003,1 hPa 0,0 l/m 2 min 0 min 0,0 UV-I 137 W/m 15,4 km/h (3 Bft)
28.02.2014 08:50 3,3 C 2,2 C 97 % 1003,1 hPa 0,0 l/m 2 min 0 min 0,0 UV-I 125 W/m 12,9 km/h (3 Bft)
28.02.2014 08:52 3,3 C 2,2 C 97 % 1003,1 hPa 0,0 l/m 0 min 0 min 0,0 UV-I 104 W/m 15,4 km/h (3 Bft)
28.02.2014 08:54 3,3 C 2,2 C 97 % 1003,0 hPa 0,0 l/m 0 min 0 min 0,0 UV-I 86 W/m 12,9 km/h (3 Bft)
28.02.2014 08:56 3,4 C 2,2 C 97 % 1003,1 hPa 0,0 l/m 2 min 0 min 0,0 UV-I 155 W/m 15,4 km/h (3 Bft)
28.02.2014 08:58 3,4 C 2,2 C 97 % 1003,1 hPa 0,0 l/m 2 min 0 min 0,0 UV-I 137 W/m 15,4 km/h (3 Bft)
28.02.2014 09:00 3,4 C 2,2 C 97 % 1002,9 hPa 0,0 l/m 2 min 0 min 0,0 UV-I 165 W/m 10,3 km/h (2 Bft)
28.02.2014 09:02 3,5 C 2,2 C 97 % 1002,8 hPa 0,0 l/m 2 min 0 min 0,0 UV-I 178 W/m 5,1 km/h (1 Bft)
28.02.2014 09:04 3,6 C 2,2 C 97 % 1002,8 hPa 0,0 l/m 2 min 0 min 0,0 UV-I 181 W/m 10,3 km/h (2 Bft)
28.02.2014 09:06 3,6 C 2,2 C 97 % 1002,8 hPa 0,0 l/m 2 min 0 min 0,0 UV-I 185 W/m 12,9 km/h (3 Bft)
28.02.2014 09:08 3,7 C 2,2 C 98 % 1002,8 hPa 0,0 l/m 2 min 0 min 0,0 UV-I 188 W/m 7,7 km/h (2 Bft)
28.02.2014 09:10 3,8 C 2,2 C 98 % 1002,8 hPa 0,0 l/m 2 min 0 min 0,0 UV-I 193 W/m 15,4 km/h (3 Bft)
28.02.2014 09:12 3,8 C 2,8 C 97 % 1002,8 hPa 0,0 l/m 2 min 0 min 0,0 UV-I 197 W/m 23,2 km/h (4 Bft)
28.02.2014 09:14 3,9 C 2,8 C 97 % 1002,7 hPa 0,0 l/m 2 min 0 min 0,0 UV-I 202 W/m 20,6 km/h (4 Bft)
28.02.2014 09:16 3,9 C 2,8 C 97 % 1002,6 hPa 0,0 l/m 2 min 0 min 0,0 UV-I 207 W/m 18,0 km/h (3 Bft)
28.02.2014 09:18 4,0 C 2,8 C 98 % 1002,6 hPa 0,0 l/m 2 min 0 min 0,0 UV-I 211 W/m 20,6 km/h (4 Bft)
28.02.2014 09:20 4,1 C 2,8 C 98 % 1002,5 hPa 0,0 l/m 2 min 0 min 0,0 UV-I 216 W/m 15,4 km/h (3 Bft)
28.02.2014 09:22 4,2 C 2,8 C 97 % 1002,5 hPa 0,0 l/m 2 min 0 min 0,0 UV-I 220 W/m 12,9 km/h (3 Bft)
28.02.2014 09:24 4,3 C 2,8 C 98 % 1002,5 hPa 0,0 l/m 2 min 0 min 0,0 UV-I 225 W/m 18,0 km/h (3 Bft)
28.02.2014 09:26 4,4 C 2,8 C 98 % 1002,6 hPa 0,0 l/m 2 min 0 min 0,0 UV-I 225 W/m 5,1 km/h (1 Bft)
28.02.2014 09:28 4,5 C 2,8 C 97 % 1002,6 hPa 0,0 l/m 2 min 0 min 0,0 UV-I 230 W/m 12,9 km/h (3 Bft)
28.02.2014 09:30 4,6 C 2,8 C 97 % 1002,5 hPa 0,0 l/m 2 min 0 min 0,0 UV-I 236 W/m 20,6 km/h (4 Bft)
28.02.2014 09:32 4,7 C 3,3 C 98 % 1002,4 hPa 0,0 l/m 2 min 0 min 0,0 UV-I 241 W/m 10,3 km/h (2 Bft)
28.02.2014 09:34 4,8 C 3,3 C 97 % 1002,4 hPa 0,0 l/m 2 min 0 min 0,0 UV-I 246 W/m 15,4 km/h (3 Bft)
28.02.2014 09:36 4,8 C 3,3 C 97 % 1002,4 hPa 0,0 l/m 2 min 0 min 0,0 UV-I 250 W/m 15,4 km/h (3 Bft)
28.02.2014 09:38 4,9 C 3,3 C 97 % 1002,4 hPa 0,0 l/m 2 min 0 min 0,0 UV-I 255 W/m 20,6 km/h (4 Bft)
28.02.2014 09:40 5,1 C 3,3 C 97 % 1002,4 hPa 0,0 l/m 2 min 0 min 0,0 UV-I 257 W/m 12,9 km/h (3 Bft)
28.02.2014 09:42 5,2 C 3,3 C 97 % 1002,4 hPa 0,0 l/m 2 min 0 min 0,0 UV-I 260 W/m 15,4 km/h (3 Bft)
28.02.2014 09:44 5,3 C 3,3 C 97 % 1002,4 hPa 0,0 l/m 2 min 0 min 0,0 UV-I 265 W/m 10,3 km/h (2 Bft)
28.02.2014 09:46 5,4 C 3,3 C 97 % 1002,3 hPa 0,0 l/m 2 min 0 min 0,0 UV-I 267 W/m 7,7 km/h (2 Bft)
28.02.2014 09:48 5,5 C 3,3 C 97 % 1002,3 hPa 0,0 l/m 2 min 0 min 0,0 UV-I 276 W/m 15,4 km/h (3 Bft)
28.02.2014 09:50 5,6 C 3,9 C 97 % 1002,3 hPa 0,0 l/m 2 min 0 min 0,0 UV-I 278 W/m 10,3 km/h (2 Bft)
28.02.2014 09:52 5,6 C 3,9 C 96 % 1002,3 hPa 0,0 l/m 2 min 0 min 0,0 UV-I 283 W/m 10,3 km/h (2 Bft)
28.02.2014 09:54 5,7 C 3,9 C 96 % 1002,3 hPa 0,0 l/m 2 min 0 min 0,0 UV-I 288 W/m 15,4 km/h (3 Bft)
28.02.2014 09:56 5,8 C 3,9 C 96 % 1002,4 hPa 0,0 l/m 2 min 0 min 0,0 UV-I 295 W/m 12,9 km/h (3 Bft)
28.02.2014 09:58 5,9 C 3,9 C 96 % 1002,4 hPa 0,0 l/m 2 min 0 min 0,0 UV-I 294 W/m 15,4 km/h (3 Bft)
28.02.2014 10:00 6,0 C 3,9 C 95 % 1002,4 hPa 0,0 l/m 2 min 0 min 0,0 UV-I 301 W/m 10,3 km/h (2 Bft)
28.02.2014 10:02 6,1 C 3,9 C 95 % 1002,3 hPa 0,0 l/m 2 min 0 min 0,0 UV-I 302 W/m 12,9 km/h (3 Bft)
28.02.2014 10:04 6,2 C 3,9 C 94 % 1002,3 hPa 0,0 l/m 2 min 0 min 0,0 UV-I 311 W/m 20,6 km/h (4 Bft)
28.02.2014 10:06 6,2 C 4,4 C 94 % 1002,2 hPa 0,0 l/m 2 min 0 min 0,0 UV-I 323 W/m 15,4 km/h (3 Bft)
28.02.2014 10:08 6,3 C 4,4 C 93 % 1002,2 hPa 0,0 l/m 2 min 0 min 0,0 UV-I 336 W/m 12,9 km/h (3 Bft)
28.02.2014 10:10 6,3 C 4,4 C 93 % 1002,3 hPa 0,0 l/m 2 min 0 min 0,0 UV-I 336 W/m 7,7 km/h (2 Bft)
28.02.2014 10:12 6,3 C 4,4 C 92 % 1002,3 hPa 0,0 l/m 0 min 0 min 0,0 UV-I 104 W/m 10,3 km/h (2 Bft)
28.02.2014 10:14 6,2 C 4,4 C 92 % 1002,3 hPa 0,0 l/m 0 min 0 min 0,0 UV-I 125 W/m 15,4 km/h (3 Bft)
28.02.2014 10:16 6,1 C 4,4 C 91 % 1002,3 hPa 0,0 l/m 0 min 0 min 0,0 UV-I 142 W/m 10,3 km/h (2 Bft)
28.02.2014 10:18 6,1 C 4,4 C 91 % 1002,3 hPa 0,0 l/m 2 min 0 min 0,0 UV-I 267 W/m 15,4 km/h (3 Bft)
28.02.2014 10:20 6,1 C 4,4 C 91 % 1002,3 hPa 0,0 l/m 2 min 0 min 0,0 UV-I 294 W/m 18,0 km/h (3 Bft)
28.02.2014 10:22 6,1 C 5,0 C 91 % 1002,3 hPa 0,0 l/m 2 min 0 min 0,0 UV-I 429 W/m 15,4 km/h (3 Bft)
28.02.2014 10:24 6,2 C 5,0 C 91 % 1002,2 hPa 0,0 l/m 2 min 0 min 0,0 UV-I 385 W/m 12,9 km/h (3 Bft)
28.02.2014 10:26 6,4 C 5,0 C 91 % 1002,2 hPa 0,0 l/m 2 min 0 min 0,0 UV-I 343 W/m 12,9 km/h (3 Bft)
28.02.2014 10:28 6,4 C 5,0 C 90 % 1002,1 hPa 0,0 l/m 0 min 0 min 0,0 UV-I 127 W/m 18,0 km/h (3 Bft)
28.02.2014 10:30 6,4 C 4,4 C 90 % 1002,1 hPa 0,0 l/m 0 min 0 min 0,0 UV-I 220 W/m 12,9 km/h (3 Bft)
28.02.2014 10:32 6,4 C 4,4 C 90 % 1002,0 hPa 0,0 l/m 2 min 0 min 0,0 UV-I 264 W/m 12,9 km/h (3 Bft)
28.02.2014 10:34 6,3 C 4,4 C 89 % 1002,0 hPa 0,0 l/m 2 min 0 min 0,0 UV-I 264 W/m 18,0 km/h (3 Bft)
28.02.2014 10:36 6,3 C 4,4 C 89 % 1002,0 hPa 0,0 l/m 0 min 0 min 0,0 UV-I 186 W/m 10,3 km/h (2 Bft)
28.02.2014 10:38 6,2 C 4,4 C 89 % 1002,0 hPa 0,0 l/m 2 min 0 min 0,0 UV-I 279 W/m 7,7 km/h (2 Bft)
28.02.2014 10:40 6,3 C 5,0 C 90 % 1001,9 hPa 0,0 l/m 2 min 0 min 0,0 UV-I 279 W/m 12,9 km/h (3 Bft)
28.02.2014 10:42 6,4 C 5,0 C 90 % 1002,0 hPa 0,0 l/m 2 min 0 min 0,0 UV-I 411 W/m 12,9 km/h (3 Bft)
28.02.2014 10:44 6,7 C 5,0 C 89 % 1001,9 hPa 0,0 l/m 2 min 0 min 0,0 UV-I 388 W/m 7,7 km/h (2 Bft)
28.02.2014 10:46 7,0 C 5,0 C 89 % 1001,9 hPa 0,0 l/m 2 min 0 min 0,0 UV-I 388 W/m 12,9 km/h (3 Bft)
28.02.2014 10:48 7,1 C 5,6 C 89 % 1001,9 hPa 0,0 l/m 2 min 0 min 0,0 UV-I 392 W/m 2,6 km/h (1 Bft)
28.02.2014 10:50 7,3 C 5,6 C 89 % 1001,9 hPa 0,0 l/m 2 min 0 min 0,0 UV-I 388 W/m 7,7 km/h (2 Bft)
28.02.2014 10:52 7,4 C 5,6 C 88 % 1001,9 hPa 0,0 l/m 2 min 0 min 0,0 UV-I 420 W/m 7,7 km/h (2 Bft)
28.02.2014 10:54 7,5 C 5,6 C 87 % 1001,9 hPa 0,0 l/m 2 min 0 min 0,0 UV-I 397 W/m 12,9 km/h (3 Bft)
28.02.2014 10:56 7,7 C 5,6 C 87 % 1001,8 hPa 0,0 l/m 2 min 0 min 0,5 UV-I 397 W/m 15,4 km/h (3 Bft)
28.02.2014 10:58 7,7 C 5,6 C 86 % 1001,8 hPa 0,0 l/m 0 min 0 min 0,0 UV-I 146 W/m 20,6 km/h (4 Bft)
28.02.2014 11:00 7,6 C 5,6 C 85 % 1001,8 hPa 0,0 l/m 0 min 0 min 0,0 UV-I 213 W/m 23,2 km/h (4 Bft)
28.02.2014 11:02 7,5 C 5,6 C 84 % 1001,9 hPa 0,0 l/m 0 min 0 min 0,0 UV-I 176 W/m 25,7 km/h (4 Bft)
28.02.2014 11:04 7,3 C 5,6 C 84 % 1001,7 hPa 0,0 l/m 0 min 0 min 0,0 UV-I 244 W/m 18,0 km/h (3 Bft)
28.02.2014 11:06 7,2 C 6,1 C 84 % 1001,8 hPa 0,0 l/m 0 min 0 min 0,0 UV-I 204 W/m 18,0 km/h (3 Bft)
28.02.2014 11:08 7,3 C 6,1 C 84 % 1001,7 hPa 0,0 l/m 0 min 0 min 0,6 UV-I 214 W/m 20,6 km/h (4 Bft)
28.02.2014 11:10 7,4 C 6,1 C 84 % 1001,7 hPa 0,0 l/m 2 min 0 min 0,5 UV-I 294 W/m 23,2 km/h (4 Bft)
28.02.2014 11:12 7,6 C 6,1 C 85 % 1001,7 hPa 0,0 l/m 2 min 0 min 0,5 UV-I 446 W/m 15,4 km/h (3 Bft)
28.02.2014 11:14 7,7 C 6,1 C 85 % 1001,8 hPa 0,0 l/m 0 min 0 min 0,0 UV-I 167 W/m 18,0 km/h (3 Bft)
28.02.2014 11:16 7,6 C 6,1 C 84 % 1001,7 hPa 0,0 l/m 0 min 0 min 0,0 UV-I 202 W/m 10,3 km/h (2 Bft)
28.02.2014 11:18 7,5 C 6,7 C 84 % 1001,7 hPa 0,0 l/m 0 min 0 min 0,7 UV-I 237 W/m 18,0 km/h (3 Bft)
28.02.2014 11:20 7,7 C 6,7 C 84 % 1001,6 hPa 0,0 l/m 0 min 0 min 0,8 UV-I 237 W/m 5,1 km/h (1 Bft)
28.02.2014 11:22 7,9 C 7,2 C 83 % 1001,6 hPa 0,0 l/m 2 min 0 min 0,7 UV-I 555 W/m 18,0 km/h (3 Bft)
28.02.2014 11:24 8,1 C 7,2 C 82 % 1001,6 hPa 0,0 l/m 0 min 0 min 0,0 UV-I 171 W/m 18,0 km/h (3 Bft)
28.02.2014 11:26 8,0 C 6,7 C 82 % 1001,6 hPa 0,0 l/m 0 min 0 min 0,0 UV-I 171 W/m 20,6 km/h (4 Bft)
28.02.2014 11:28 7,9 C 6,7 C 82 % 1001,6 hPa 0,0 l/m 0 min 0 min 0,0 UV-I 213 W/m 18,0 km/h (3 Bft)
28.02.2014 11:30 7,8 C 6,7 C 82 % 1001,6 hPa 0,0 l/m 0 min 0 min 0,7 UV-I 204 W/m 12,9 km/h (3 Bft)
28.02.2014 11:32 7,8 C 6,7 C 83 % 1001,6 hPa 0,0 l/m 0 min 0 min 0,0 UV-I 183 W/m 12,9 km/h (3 Bft)
28.02.2014 11:34 7,8 C 6,7 C 82 % 1001,5 hPa 0,0 l/m 0 min 0 min 0,0 UV-I 156 W/m 15,4 km/h (3 Bft)
28.02.2014 11:36 7,7 C 6,7 C 81 % 1001,6 hPa 0,0 l/m 0 min 0 min 0,0 UV-I 142 W/m 18,0 km/h (3 Bft)
28.02.2014 11:38 7,6 C 6,7 C 82 % 1001,5 hPa 0,0 l/m 0 min 0 min 0,0 UV-I 139 W/m 15,4 km/h (3 Bft)
28.02.2014 11:40 7,6 C 6,7 C 83 % 1001,5 hPa 0,0 l/m 0 min 0 min 0,0 UV-I 169 W/m 12,9 km/h (3 Bft)
28.02.2014 11:42 7,6 C 6,7 C 83 % 1001,5 hPa 0,0 l/m 0 min 0 min 0,0 UV-I 190 W/m 15,4 km/h (3 Bft)
28.02.2014 11:44 7,6 C 6,7 C 83 % 1001,5 hPa 0,0 l/m 0 min 0 min 0,0 UV-I 207 W/m 12,9 km/h (3 Bft)
28.02.2014 11:46 7,6 C 6,7 C 83 % 1001,5 hPa 0,0 l/m 2 min 0 min 0,0 UV-I 301 W/m 20,6 km/h (4 Bft)
28.02.2014 11:48 7,8 C 7,2 C 83 % 1001,5 hPa 0,0 l/m 0 min 0 min 0,0 UV-I 272 W/m 15,4 km/h (3 Bft)
28.02.2014 11:50 7,8 C 7,2 C 82 % 1001,4 hPa 0,0 l/m 0 min 0 min 0,0 UV-I 253 W/m 12,9 km/h (3 Bft)
28.02.2014 11:52 8,0 C 7,2 C 81 % 1001,3 hPa 0,0 l/m 2 min 0 min 0,6 UV-I 299 W/m 18,0 km/h (3 Bft)
28.02.2014 11:54 8,2 C 7,2 C 82 % 1001,3 hPa 0,0 l/m 0 min 0 min 0,0 UV-I 171 W/m 18,0 km/h (3 Bft)
28.02.2014 11:56 8,1 C 7,2 C 80 % 1001,3 hPa 0,0 l/m 0 min 0 min 0,0 UV-I 179 W/m 20,6 km/h (4 Bft)
28.02.2014 11:58 8,1 C 7,2 C 80 % 1001,3 hPa 0,0 l/m 2 min 0 min 0,0 UV-I 512 W/m 15,4 km/h (3 Bft)
28.02.2014 12:00 8,1 C 7,2 C 80 % 1001,2 hPa 0,0 l/m 0 min 0 min 0,0 UV-I 207 W/m 18,0 km/h (3 Bft)
28.02.2014 12:02 8,1 C 7,2 C 80 % 1001,2 hPa 0,0 l/m 0 min 0 min 0,0 UV-I 146 W/m 10,3 km/h (2 Bft)
28.02.2014 12:04 8,1 C 7,2 C 80 % 1001,2 hPa 0,0 l/m 0 min 0 min 0,0 UV-I 148 W/m 18,0 km/h (3 Bft)
28.02.2014 12:06 8,1 C 7,2 C 80 % 1001,2 hPa 0,0 l/m 2 min 0 min 0,0 UV-I 573 W/m 20,6 km/h (4 Bft)
28.02.2014 12:08 8,3 C 7,8 C 80 % 1001,2 hPa 0,0 l/m 2 min 0 min 0,0 UV-I 573 W/m 12,9 km/h (3 Bft)
28.02.2014 12:10 8,4 C 7,8 C 80 % 1001,2 hPa 0,0 l/m 2 min 0 min 0,0 UV-I 573 W/m 18,0 km/h (3 Bft)
28.02.2014 12:12 8,6 C 7,8 C 79 % 1001,1 hPa 0,0 l/m 2 min 0 min 0,0 UV-I 573 W/m 18,0 km/h (3 Bft)
28.02.2014 12:14 8,6 C 7,8 C 79 % 1001,0 hPa 0,0 l/m 0 min 0 min 0,0 UV-I 246 W/m 7,7 km/h (2 Bft)
28.02.2014 12:16 8,6 C 7,8 C 80 % 1001,1 hPa 0,0 l/m 0 min 0 min 0,0 UV-I 246 W/m 10,3 km/h (2 Bft)
28.02.2014 12:18 8,7 C 7,8 C 79 % 1001,1 hPa 0,0 l/m 0 min 0 min 0,0 UV-I 246 W/m 23,2 km/h (4 Bft)
28.02.2014 12:20 8,8 C 7,8 C 79 % 1001,0 hPa 0,0 l/m 2 min 0 min 0,0 UV-I 533 W/m 20,6 km/h (4 Bft)
28.02.2014 12:22 9,1 C 8,3 C 79 % 1001,0 hPa 0,0 l/m 2 min 0 min 0,5 UV-I 621 W/m 10,3 km/h (2 Bft)
28.02.2014 12:24 9,3 C 8,3 C 78 % 1000,8 hPa 0,0 l/m 2 min 0 min 0,5 UV-I 487 W/m 23,2 km/h (4 Bft)
28.02.2014 12:26 9,4 C 8,3 C 77 % 1000,8 hPa 0,0 l/m 2 min 0 min 0,0 UV-I 555 W/m 20,6 km/h (4 Bft)
28.02.2014 12:28 9,3 C 8,3 C 75 % 1000,8 hPa 0,0 l/m 2 min 0 min 0,5 UV-I 555 W/m 23,2 km/h (4 Bft)
28.02.2014 12:30 9,4 C 8,3 C 77 % 1000,8 hPa 0,0 l/m 2 min 0 min 0,5 UV-I 545 W/m 10,3 km/h (2 Bft)
28.02.2014 12:32 9,6 C 8,3 C 77 % 1000,7 hPa 0,0 l/m 2 min 0 min 0,0 UV-I 538 W/m 12,9 km/h (3 Bft)
28.02.2014 12:34 9,6 C 8,3 C 75 % 1000,7 hPa 0,0 l/m 2 min 0 min 0,5 UV-I 538 W/m 7,7 km/h (2 Bft)
28.02.2014 12:36 9,6 C 8,3 C 74 % 1000,6 hPa 0,0 l/m 2 min 0 min 0,5 UV-I 524 W/m 18,0 km/h (3 Bft)
28.02.2014 12:38 9,5 C 8,3 C 75 % 1000,7 hPa 0,0 l/m 2 min 0 min 0,5 UV-I 547 W/m 18,0 km/h (3 Bft)
28.02.2014 12:40 9,5 C 8,3 C 74 % 1000,6 hPa 0,0 l/m 2 min 0 min 0,6 UV-I 531 W/m 20,6 km/h (4 Bft)
28.02.2014 12:42 9,6 C 8,3 C 74 % 1000,6 hPa 0,0 l/m 2 min 0 min 0,5 UV-I 531 W/m 18,0 km/h (3 Bft)
28.02.2014 12:44 9,3 C 7,8 C 73 % 1000,6 hPa 0,0 l/m 0 min 0 min 0,7 UV-I 148 W/m 23,2 km/h (4 Bft)
28.02.2014 12:46 9,1 C 7,8 C 74 % 1000,6 hPa 0,0 l/m 0 min 0 min 0,0 UV-I 156 W/m 20,6 km/h (4 Bft)
28.02.2014 12:48 8,9 C 7,8 C 75 % 1000,6 hPa 0,0 l/m 0 min 0 min 0,0 UV-I 148 W/m 18,0 km/h (3 Bft)
28.02.2014 12:50 8,7 C 7,8 C 75 % 1000,6 hPa 0,0 l/m 0 min 0 min 0,0 UV-I 167 W/m 15,4 km/h (3 Bft)
28.02.2014 12:52 8,6 C 7,2 C 75 % 1000,5 hPa 0,0 l/m 0 min 0 min 0,0 UV-I 178 W/m 15,4 km/h (3 Bft)
28.02.2014 12:54 8,5 C 7,2 C 76 % 1000,5 hPa 0,0 l/m 0 min 0 min 0,0 UV-I 167 W/m 18,0 km/h (3 Bft)
28.02.2014 12:56 8,4 C 7,2 C 76 % 1000,5 hPa 0,0 l/m 0 min 0 min 0,0 UV-I 195 W/m 10,3 km/h (2 Bft)
28.02.2014 12:58 8,4 C 7,8 C 76 % 1000,5 hPa 0,0 l/m 0 min 0 min 0,5 UV-I 274 W/m 7,7 km/h (2 Bft)
28.02.2014 13:00 8,5 C 7,8 C 76 % 1000,5 hPa 0,0 l/m 0 min 0 min 0,0 UV-I 274 W/m 12,9 km/h (3 Bft)
28.02.2014 13:02 8,6 C 7,8 C 77 % 1000,5 hPa 0,0 l/m 0 min 0 min 0,0 UV-I 230 W/m 10,3 km/h (2 Bft)
28.02.2014 13:04 8,7 C 7,8 C 77 % 1000,4 hPa 0,0 l/m 2 min 0 min 0,5 UV-I 306 W/m 10,3 km/h (2 Bft)
28.02.2014 13:06 8,8 C 8,3 C 77 % 1000,4 hPa 0,0 l/m 2 min 0 min 0,5 UV-I 288 W/m 10,3 km/h (2 Bft)
28.02.2014 13:08 8,9 C 8,3 C 76 % 1000,4 hPa 0,0 l/m 0 min 0 min 0,0 UV-I 250 W/m 5,1 km/h (1 Bft)
28.02.2014 13:10 8,9 C 8,3 C 75 % 1000,3 hPa 0,0 l/m 0 min 0 min 1,0 UV-I 269 W/m 12,9 km/h (3 Bft)
28.02.2014 13:12 9,1 C 8,3 C 76 % 1000,4 hPa 0,0 l/m 0 min 0 min 0,0 UV-I 269 W/m 20,6 km/h (4 Bft)
28.02.2014 13:14 9,2 C 8,3 C 75 % 1000,3 hPa 0,0 l/m 0 min 0 min 0,0 UV-I 190 W/m 7,7 km/h (2 Bft)
28.02.2014 13:16 9,1 C 8,3 C 74 % 1000,3 hPa 0,0 l/m 0 min 0 min 0,0 UV-I 179 W/m 18,0 km/h (3 Bft)
28.02.2014 13:18 9,1 C 8,3 C 74 % 1000,3 hPa 0,0 l/m 0 min 0 min 0,0 UV-I 195 W/m 12,9 km/h (3 Bft)
28.02.2014 13:20 9,0 C 8,3 C 74 % 1000,3 hPa 0,0 l/m 0 min 0 min 0,0 UV-I 250 W/m 18,0 km/h (3 Bft)
28.02.2014 13:22 8,9 C 8,3 C 74 % 1000,2 hPa 0,0 l/m 0 min 0 min 0,0 UV-I 248 W/m 10,3 km/h (2 Bft)
28.02.2014 13:24 9,1 C 8,3 C 76 % 1000,2 hPa 0,0 l/m 0 min 0 min 0,0 UV-I 221 W/m 15,4 km/h (3 Bft)
28.02.2014 13:26 9,1 C 8,3 C 75 % 1000,2 hPa 0,0 l/m 0 min 0 min 0,0 UV-I 171 W/m 10,3 km/h (2 Bft)
28.02.2014 13:28 9,1 C 8,3 C 75 % 1000,3 hPa 0,0 l/m 0 min 0 min 0,0 UV-I 160 W/m 18,0 km/h (3 Bft)
28.02.2014 13:30 8,9 C 8,3 C 75 % 1000,2 hPa 0,0 l/m 0 min 0 min 0,0 UV-I 165 W/m 20,6 km/h (4 Bft)
28.02.2014 13:32 8,8 C 8,3 C 75 % 1000,3 hPa 0,0 l/m 0 min 0 min 0,0 UV-I 160 W/m 18,0 km/h (3 Bft)
28.02.2014 13:34 8,7 C 7,8 C 74 % 1000,2 hPa 0,0 l/m 0 min 0 min 0,0 UV-I 160 W/m 23,2 km/h (4 Bft)
28.02.2014 13:36 8,7 C 7,8 C 75 % 1000,2 hPa 0,0 l/m 0 min 0 min 0,0 UV-I 163 W/m 12,9 km/h (3 Bft)
28.02.2014 13:38 8,7 C 7,8 C 75 % 1000,2 hPa 0,0 l/m 0 min 0 min 0,0 UV-I 171 W/m 12,9 km/h (3 Bft)
28.02.2014 13:40 8,7 C 7,8 C 76 % 1000,2 hPa 0,0 l/m 0 min 0 min 0,0 UV-I 176 W/m 10,3 km/h (2 Bft)
28.02.2014 13:42 8,7 C 7,8 C 76 % 1000,2 hPa 0,0 l/m 0 min 0 min 0,0 UV-I 181 W/m 20,6 km/h (4 Bft)
28.02.2014 13:44 8,7 C 8,3 C 75 % 1000,2 hPa 0,0 l/m 0 min 0 min 0,0 UV-I 197 W/m 2,6 km/h (1 Bft)
28.02.2014 13:46 8,7 C 8,3 C 76 % 1000,1 hPa 0,0 l/m 0 min 0 min 0,0 UV-I 192 W/m 0,0 km/h (0 Bft)
28.02.2014 13:48 8,8 C 8,3 C 75 % 1000,1 hPa 0,0 l/m 0 min 0 min 0,0 UV-I 193 W/m 12,9 km/h (3 Bft)
28.02.2014 13:50 8,8 C 8,3 C 75 % 1000,0 hPa 0,0 l/m 0 min 0 min 0,0 UV-I 218 W/m 10,3 km/h (2 Bft)
28.02.2014 13:52 8,9 C 8,3 C 76 % 1000,0 hPa 0,0 l/m 2 min 0 min 0,0 UV-I 334 W/m 12,9 km/h (3 Bft)
28.02.2014 13:54 9,0 C 8,9 C 74 % 999,9 hPa 0,0 l/m 2 min 0 min 0,7 UV-I 334 W/m 12,9 km/h (3 Bft)
28.02.2014 13:56 9,1 C 8,9 C 73 % 999,9 hPa 0,0 l/m 2 min 0 min 0,8 UV-I 417 W/m 18,0 km/h (3 Bft)
28.02.2014 13:58 9,3 C 8,9 C 72 % 999,9 hPa 0,0 l/m 2 min 0 min 0,9 UV-I 534 W/m 15,4 km/h (3 Bft)
28.02.2014 14:00 9,5 C 8,9 C 72 % 999,8 hPa 0,0 l/m 2 min 0 min 0,7 UV-I 534 W/m 10,3 km/h (2 Bft)
28.02.2014 14:02 9,8 C 8,9 C 72 % 999,8 hPa 0,0 l/m 2 min 0 min 0,0 UV-I 557 W/m 12,9 km/h (3 Bft)
28.02.2014 14:04 9,9 C 8,9 C 69 % 999,7 hPa 0,0 l/m 0 min 0 min 0,0 UV-I 186 W/m 12,9 km/h (3 Bft)
28.02.2014 14:06 9,8 C 8,9 C 68 % 999,7 hPa 0,0 l/m 0 min 0 min 0,0 UV-I 169 W/m 15,4 km/h (3 Bft)
28.02.2014 14:08 9,7 C 8,9 C 68 % 999,6 hPa 0,0 l/m 0 min 0 min 0,0 UV-I 199 W/m 10,3 km/h (2 Bft)
28.02.2014 14:10 9,5 C 8,3 C 69 % 999,6 hPa 0,0 l/m 0 min 0 min 0,0 UV-I 156 W/m 12,9 km/h (3 Bft)
28.02.2014 14:12 9,4 C 8,3 C 70 % 999,6 hPa 0,0 l/m 0 min 0 min 0,0 UV-I 153 W/m 7,7 km/h (2 Bft)
28.02.2014 14:14 9,3 C 8,3 C 70 % 999,6 hPa 0,0 l/m 0 min 0 min 0,0 UV-I 158 W/m 18,0 km/h (3 Bft)
28.02.2014 14:16 9,2 C 8,3 C 70 % 999,6 hPa 0,0 l/m 0 min 0 min 0,0 UV-I 162 W/m 15,4 km/h (3 Bft)
28.02.2014 14:18 9,1 C 8,3 C 71 % 999,6 hPa 0,0 l/m 0 min 0 min 0,0 UV-I 155 W/m 18,0 km/h (3 Bft)
28.02.2014 14:20 9,1 C 8,3 C 71 % 999,6 hPa 0,0 l/m 0 min 0 min 0,0 UV-I 151 W/m 20,6 km/h (4 Bft)
28.02.2014 14:22 9,0 C 8,3 C 70 % 999,6 hPa 0,0 l/m 0 min 0 min 0,0 UV-I 142 W/m 10,3 km/h (2 Bft)
28.02.2014 14:24 8,9 C 8,3 C 70 % 999,5 hPa 0,0 l/m 0 min 0 min 0,0 UV-I 134 W/m 12,9 km/h (3 Bft)
28.02.2014 14:26 8,9 C 7,8 C 71 % 999,5 hPa 0,0 l/m 0 min 0 min 0,0 UV-I 134 W/m 7,7 km/h (2 Bft)
28.02.2014 14:28 8,9 C 7,8 C 71 % 999,5 hPa 0,0 l/m 0 min 0 min 0,0 UV-I 137 W/m 10,3 km/h (2 Bft)
28.02.2014 14:30 8,9 C 7,8 C 71 % 999,5 hPa 0,0 l/m 0 min 0 min 0,0 UV-I 139 W/m 15,4 km/h (3 Bft)
28.02.2014 14:32 8,8 C 7,8 C 70 % 999,5 hPa 0,0 l/m 0 min 0 min 0,0 UV-I 148 W/m 18,0 km/h (3 Bft)
28.02.2014 14:34 8,9 C 7,8 C 71 % 999,5 hPa 0,0 l/m 0 min 0 min 0,0 UV-I 158 W/m 7,7 km/h (2 Bft)
28.02.2014 14:36 8,9 C 8,3 C 71 % 999,5 hPa 0,0 l/m 0 min 0 min 0,0 UV-I 181 W/m 18,0 km/h (3 Bft)
28.02.2014 14:38 8,9 C 8,3 C 71 % 999,5 hPa 0,0 l/m 0 min 0 min 0,0 UV-I 179 W/m 10,3 km/h (2 Bft)
28.02.2014 14:40 8,9 C 8,3 C 71 % 999,5 hPa 0,0 l/m 0 min 0 min 0,0 UV-I 169 W/m 18,0 km/h (3 Bft)
28.02.2014 14:42 9,0 C 8,3 C 71 % 999,5 hPa 0,0 l/m 0 min 0 min 0,0 UV-I 183 W/m 15,4 km/h (3 Bft)
28.02.2014 14:44 9,0 C 8,3 C 71 % 999,5 hPa 0,0 l/m 0 min 0 min 0,0 UV-I 206 W/m 18,0 km/h (3 Bft)
28.02.2014 14:46 9,2 C 8,3 C 71 % 999,5 hPa 0,0 l/m 2 min 0 min 0,0 UV-I 283 W/m 15,4 km/h (3 Bft)
28.02.2014 14:48 9,3 C 8,9 C 71 % 999,5 hPa 0,0 l/m 2 min 0 min 0,0 UV-I 320 W/m 15,4 km/h (3 Bft)
28.02.2014 14:50 9,4 C 8,9 C 70 % 999,5 hPa 0,0 l/m 2 min 0 min 0,5 UV-I 475 W/m 18,0 km/h (3 Bft)
28.02.2014 14:52 9,7 C 9,4 C 70 % 999,5 hPa 0,0 l/m 2 min 0 min 0,0 UV-I 541 W/m 20,6 km/h (4 Bft)
28.02.2014 14:54 9,8 C 9,4 C 68 % 999,5 hPa 0,0 l/m 2 min 0 min 0,0 UV-I 276 W/m 23,2 km/h (4 Bft)
28.02.2014 14:56 9,7 C 8,9 C 68 % 999,5 hPa 0,0 l/m 2 min 0 min 0,5 UV-I 350 W/m 23,2 km/h (4 Bft)
28.02.2014 14:58 9,8 C 9,4 C 69 % 999,5 hPa 0,0 l/m 2 min 0 min 0,0 UV-I 378 W/m 12,9 km/h (3 Bft)
28.02.2014 15:00 9,9 C 9,4 C 68 % 999,4 hPa 0,0 l/m 2 min 0 min 0,0 UV-I 258 W/m 23,2 km/h (4 Bft)
28.02.2014 15:02 9,9 C 9,4 C 68 % 999,4 hPa 0,0 l/m 2 min 0 min 0,0 UV-I 239 W/m 12,9 km/h (3 Bft)
28.02.2014 15:04 9,9 C 9,4 C 69 % 999,4 hPa 0,0 l/m 2 min 0 min 0,0 UV-I 234 W/m 7,7 km/h (2 Bft)
28.02.2014 15:06 9,8 C 9,4 C 69 % 999,4 hPa 0,0 l/m 2 min 0 min 0,0 UV-I 225 W/m 18,0 km/h (3 Bft)
28.02.2014 15:08 9,7 C 8,9 C 69 % 999,5 hPa 0,0 l/m 0 min 0 min 0,0 UV-I 192 W/m 10,3 km/h (2 Bft)
28.02.2014 15:10 9,6 C 8,9 C 69 % 999,4 hPa 0,0 l/m 0 min 0 min 0,0 UV-I 160 W/m 23,2 km/h (4 Bft)
28.02.2014 15:12 9,6 C 8,9 C 70 % 999,4 hPa 0,0 l/m 0 min 0 min 0,0 UV-I 127 W/m 12,9 km/h (3 Bft)
28.02.2014 15:14 9,6 C 8,9 C 70 % 999,5 hPa 0,0 l/m 0 min 0 min 0,0 UV-I 104 W/m 10,3 km/h (2 Bft)
28.02.2014 15:16 9,5 C 8,3 C 70 % 999,5 hPa 0,0 l/m 0 min 0 min 0,0 UV-I 97 W/m 10,3 km/h (2 Bft)
28.02.2014 15:18 9,4 C 8,3 C 69 % 999,5 hPa 0,0 l/m 0 min 0 min 0,0 UV-I 100 W/m 15,4 km/h (3 Bft)
28.02.2014 15:20 9,3 C 8,3 C 70 % 999,5 hPa 0,0 l/m 0 min 0 min 0,0 UV-I 102 W/m 12,9 km/h (3 Bft)
28.02.2014 15:22 9,3 C 8,3 C 70 % 999,5 hPa 0,0 l/m 0 min 0 min 0,0 UV-I 105 W/m 23,2 km/h (4 Bft)
28.02.2014 15:24 9,2 C 8,3 C 70 % 999,5 hPa 0,0 l/m 0 min 0 min 0,0 UV-I 111 W/m 18,0 km/h (3 Bft)
28.02.2014 15:26 9,2 C 7,8 C 70 % 999,4 hPa 0,0 l/m 0 min 0 min 0,0 UV-I 118 W/m 15,4 km/h (3 Bft)
28.02.2014 15:28 9,1 C 7,8 C 70 % 999,4 hPa 0,0 l/m 0 min 0 min 0,0 UV-I 142 W/m 12,9 km/h (3 Bft)
28.02.2014 15:30 9,1 C 7,8 C 71 % 999,4 hPa 0,0 l/m 0 min 0 min 0,0 UV-I 156 W/m 18,0 km/h (3 Bft)
28.02.2014 15:32 9,1 C 8,3 C 71 % 999,4 hPa 0,0 l/m 0 min 0 min 0,0 UV-I 165 W/m 12,9 km/h (3 Bft)
28.02.2014 15:34 9,1 C 8,3 C 72 % 999,5 hPa 0,0 l/m 0 min 0 min 0,0 UV-I 156 W/m 10,3 km/h (2 Bft)
28.02.2014 15:36 9,2 C 8,3 C 72 % 999,4 hPa 0,0 l/m 0 min 0 min 0,0 UV-I 142 W/m 15,4 km/h (3 Bft)
28.02.2014 15:38 9,2 C 8,3 C 72 % 999,5 hPa 0,0 l/m 0 min 0 min 0,0 UV-I 128 W/m 18,0 km/h (3 Bft)
28.02.2014 15:40 9,1 C 8,3 C 72 % 999,4 hPa 0,0 l/m 0 min 0 min 0,0 UV-I 125 W/m 18,0 km/h (3 Bft)
28.02.2014 15:42 9,1 C 8,3 C 71 % 999,5 hPa 0,0 l/m 0 min 0 min 0,0 UV-I 132 W/m 7,7 km/h (2 Bft)
28.02.2014 15:44 9,1 C 8,3 C 71 % 999,5 hPa 0,0 l/m 0 min 0 min 0,0 UV-I 146 W/m 12,9 km/h (3 Bft)
28.02.2014 15:46 9,1 C 8,3 C 70 % 999,5 hPa 0,0 l/m 0 min 0 min 0,0 UV-I 141 W/m 12,9 km/h (3 Bft)
28.02.2014 15:48 9,1 C 8,3 C 72 % 999,5 hPa 0,0 l/m 0 min 0 min 0,0 UV-I 128 W/m 18,0 km/h (3 Bft)
28.02.2014 15:50 9,1 C 8,3 C 71 % 999,4 hPa 0,0 l/m 0 min 0 min 0,0 UV-I 111 W/m 20,6 km/h (4 Bft)
28.02.2014 15:52 9,0 C 8,3 C 71 % 999,4 hPa 0,0 l/m 0 min 0 min 0,0 UV-I 95 W/m 5,1 km/h (1 Bft)
28.02.2014 15:54 9,0 C 7,8 C 72 % 999,4 hPa 0,0 l/m 0 min 0 min 0,0 UV-I 83 W/m 18,0 km/h (3 Bft)
28.02.2014 15:56 9,0 C 7,8 C 71 % 999,4 hPa 0,0 l/m 0 min 0 min 0,0 UV-I 77 W/m 2,6 km/h (1 Bft)
28.02.2014 15:58 8,9 C 7,8 C 71 % 999,4 hPa 0,0 l/m 0 min 0 min 0,0 UV-I 76 W/m 12,9 km/h (3 Bft)
28.02.2014 16:00 8,9 C 7,8 C 72 % 999,4 hPa 0,0 l/m 0 min 0 min 0,0 UV-I 69 W/m 12,9 km/h (3 Bft)
28.02.2014 16:02 8,9 C 7,8 C 72 % 999,4 hPa 0,0 l/m 0 min 0 min 0,0 UV-I 56 W/m 7,7 km/h (2 Bft)
28.02.2014 16:04 8,8 C 7,8 C 72 % 999,4 hPa 0,0 l/m 0 min 0 min 0,0 UV-I 46 W/m 10,3 km/h (2 Bft)
28.02.2014 16:06 8,8 C 7,2 C 73 % 999,4 hPa 0,0 l/m 0 min 0 min 0,0 UV-I 49 W/m 10,3 km/h (2 Bft)
28.02.2014 16:08 8,8 C 7,2 C 73 % 999,3 hPa 0,0 l/m 0 min 0 min 0,0 UV-I 56 W/m 2,6 km/h (1 Bft)
28.02.2014 16:10 8,8 C 7,8 C 73 % 999,3 hPa 0,0 l/m 0 min 0 min 0,0 UV-I 67 W/m 2,6 km/h (1 Bft)
28.02.2014 16:12 8,8 C 7,8 C 73 % 999,3 hPa 0,0 l/m 0 min 0 min 0,0 UV-I 62 W/m 2,6 km/h (1 Bft)
28.02.2014 16:14 8,8 C 7,8 C 73 % 999,3 hPa 0,0 l/m 0 min 0 min 0,0 UV-I 54 W/m 12,9 km/h (3 Bft)
28.02.2014 16:16 8,8 C 7,8 C 73 % 999,4 hPa 0,0 l/m 0 min 0 min 0,0 UV-I 49 W/m 12,9 km/h (3 Bft)
28.02.2014 16:18 8,8 C 7,2 C 74 % 999,4 hPa 0,0 l/m 0 min 0 min 0,0 UV-I 44 W/m 10,3 km/h (2 Bft)
28.02.2014 16:20 8,8 C 7,2 C 74 % 999,4 hPa 0,0 l/m 0 min 0 min 0,0 UV-I 44 W/m 5,1 km/h (1 Bft)
28.02.2014 16:22 8,8 C 7,2 C 74 % 999,4 hPa 0,0 l/m 0 min 0 min 0,0 UV-I 47 W/m 7,7 km/h (2 Bft)
28.02.2014 16:24 8,7 C 7,2 C 74 % 999,4 hPa 0,0 l/m 0 min 0 min 0,0 UV-I 44 W/m 5,1 km/h (1 Bft)
28.02.2014 16:26 8,7 C 7,2 C 74 % 999,3 hPa 0,0 l/m 0 min 0 min 0,0 UV-I 39 W/m 10,3 km/h (2 Bft)
28.02.2014 16:28 8,7 C 7,2 C 74 % 999,3 hPa 0,0 l/m 0 min 0 min 0,0 UV-I 35 W/m 10,3 km/h (2 Bft)
28.02.2014 16:30 8,7 C 7,2 C 74 % 999,3 hPa 0,0 l/m 0 min 2 min 0,0 UV-I 33 W/m 10,3 km/h (2 Bft)
28.02.2014 16:32 8,7 C 7,2 C 75 % 999,3 hPa 0,0 l/m 0 min 2 min 0,0 UV-I 37 W/m 7,7 km/h (2 Bft)
28.02.2014 16:34 8,6 C 6,7 C 75 % 999,3 hPa 0,0 l/m 0 min 0 min 0,0 UV-I 42 W/m 18,0 km/h (3 Bft)
28.02.2014 16:36 8,6 C 6,7 C 75 % 999,3 hPa 0,0 l/m 0 min 0 min 0,0 UV-I 44 W/m 10,3 km/h (2 Bft)
28.02.2014 16:38 8,6 C 6,7 C 76 % 999,3 hPa 0,0 l/m 0 min 0 min 0,0 UV-I 46 W/m 12,9 km/h (3 Bft)
28.02.2014 16:40 8,6 C 6,7 C 76 % 999,3 hPa 0,0 l/m 0 min 0 min 0,0 UV-I 46 W/m 12,9 km/h (3 Bft)
28.02.2014 16:42 8,6 C 6,7 C 76 % 999,3 hPa 0,0 l/m 0 min 0 min 0,0 UV-I 46 W/m 12,9 km/h (3 Bft)
28.02.2014 16:44 8,6 C 6,7 C 75 % 999,3 hPa 0,0 l/m 0 min 0 min 0,0 UV-I 42 W/m 10,3 km/h (2 Bft)
28.02.2014 16:46 8,5 C 7,2 C 76 % 999,3 hPa 0,0 l/m 0 min 0 min 0,0 UV-I 35 W/m 15,4 km/h (3 Bft)
28.02.2014 16:48 8,5 C 7,2 C 76 % 999,3 hPa 0,0 l/m 0 min 0 min 0,0 UV-I 32 W/m 12,9 km/h (3 Bft)
28.02.2014 16:50 8,5 C 7,2 C 76 % 999,3 hPa 0,0 l/m 0 min 0 min 0,0 UV-I 25 W/m 12,9 km/h (3 Bft)
28.02.2014 16:52 8,5 C 7,2 C 76 % 999,2 hPa 0,0 l/m 0 min 0 min 0,0 UV-I 19 W/m 0,0 km/h (0 Bft)
28.02.2014 16:54 8,4 C 7,2 C 76 % 999,2 hPa 0,0 l/m 0 min 0 min 0,0 UV-I 16 W/m 0,0 km/h (0 Bft)
28.02.2014 16:56 8,4 C 7,2 C 76 % 999,3 hPa 0,0 l/m 0 min 0 min 0,0 UV-I 14 W/m 18,0 km/h (3 Bft)
28.02.2014 16:58 8,4 C 6,7 C 76 % 999,3 hPa 0,0 l/m 0 min 0 min 0,0 UV-I 14 W/m 7,7 km/h (2 Bft)
28.02.2014 17:00 8,4 C 6,7 C 76 % 999,2 hPa 0,0 l/m 0 min 0 min 0,0 UV-I 12 W/m 12,9 km/h (3 Bft)
28.02.2014 17:02 8,4 C 6,7 C 76 % 999,2 hPa 0,0 l/m 0 min 0 min 0,0 UV-I 12 W/m 7,7 km/h (2 Bft)
28.02.2014 17:04 8,4 C 6,7 C 76 % 999,2 hPa 0,0 l/m 0 min 0 min 0,0 UV-I 14 W/m 7,7 km/h (2 Bft)
28.02.2014 17:06 8,4 C 6,7 C 76 % 999,2 hPa 0,0 l/m 0 min 0 min 0,0 UV-I 16 W/m 2,6 km/h (1 Bft)
28.02.2014 17:08 8,4 C 6,7 C 76 % 999,2 hPa 0,0 l/m 0 min 0 min 0,0 UV-I 12 W/m 0,0 km/h (0 Bft)
28.02.2014 17:10 8,4 C 6,7 C 76 % 999,2 hPa 0,0 l/m 0 min 0 min 0,0 UV-I 11 W/m 7,7 km/h (2 Bft)
28.02.2014 17:12 8,4 C 6,7 C 76 % 999,2 hPa 0,0 l/m 0 min 0 min 0,0 UV-I 11 W/m 18,0 km/h (3 Bft)
28.02.2014 17:14 8,4 C 6,7 C 76 % 999,2 hPa 0,0 l/m 0 min 0 min 0,0 UV-I 9 W/m 15,4 km/h (3 Bft)
28.02.2014 17:16 8,4 C 6,7 C 76 % 999,2 hPa 0,0 l/m 0 min 0 min 0,0 UV-I 9 W/m 10,3 km/h (2 Bft)
28.02.2014 17:18 8,4 C 6,7 C 76 % 999,2 hPa 0,0 l/m 0 min 0 min 0,0 UV-I 9 W/m 5,1 km/h (1 Bft)
28.02.2014 17:20 8,4 C 6,7 C 76 % 999,2 hPa 0,0 l/m 0 min 0 min 0,0 UV-I 9 W/m 5,1 km/h (1 Bft)
28.02.2014 17:22 8,4 C 6,7 C 76 % 999,2 hPa 0,0 l/m 0 min 0 min 0,0 UV-I 9 W/m 5,1 km/h (1 Bft)
28.02.2014 17:24 8,4 C 6,7 C 76 % 999,2 hPa 0,0 l/m 0 min 0 min 0,0 UV-I 9 W/m 7,7 km/h (2 Bft)
28.02.2014 17:26 8,4 C 6,7 C 76 % 999,2 hPa 0,0 l/m 0 min 0 min 0,0 UV-I 9 W/m 7,7 km/h (2 Bft)
28.02.2014 17:28 8,3 C 6,7 C 76 % 999,2 hPa 0,0 l/m 0 min 0 min 0,0 UV-I 7 W/m 7,7 km/h (2 Bft)
28.02.2014 17:30 8,3 C 6,7 C 77 % 999,3 hPa 0,0 l/m 0 min 0 min 0,0 UV-I 7 W/m 2,6 km/h (1 Bft)
28.02.2014 17:32 8,3 C 6,7 C 77 % 999,2 hPa 0,0 l/m 0 min 0 min 0,0 UV-I 7 W/m 10,3 km/h (2 Bft)
28.02.2014 17:34 8,3 C 6,7 C 77 % 999,2 hPa 0,0 l/m 0 min 0 min 0,0 UV-I 9 W/m 10,3 km/h (2 Bft)
28.02.2014 17:36 8,3 C 6,7 C 77 % 999,1 hPa 0,0 l/m 0 min 0 min 0,0 UV-I 11 W/m 7,7 km/h (2 Bft)
28.02.2014 17:38 8,3 C 6,7 C 76 % 999,1 hPa 0,0 l/m 0 min 0 min 0,0 UV-I 14 W/m 12,9 km/h (3 Bft)
28.02.2014 17:40 8,3 C 6,7 C 76 % 999,1 hPa 0,0 l/m 0 min 0 min 0,0 UV-I 16 W/m 5,1 km/h (1 Bft)
28.02.2014 17:42 8,3 C 6,7 C 76 % 999,2 hPa 0,0 l/m 0 min 0 min 0,0 UV-I 16 W/m 7,7 km/h (2 Bft)
28.02.2014 17:44 8,3 C 6,7 C 77 % 999,2 hPa 0,0 l/m 0 min 0 min 0,0 UV-I 16 W/m 0,0 km/h (0 Bft)
28.02.2014 17:46 8,3 C 6,7 C 77 % 999,1 hPa 0,0 l/m 0 min 0 min 0,0 UV-I 16 W/m 2,6 km/h (1 Bft)
28.02.2014 17:48 8,2 C 6,7 C 76 % 999,2 hPa 0,0 l/m 0 min 0 min 0,0 UV-I 16 W/m 0,0 km/h (0 Bft)
28.02.2014 17:50 8,2 C 6,7 C 76 % 999,2 hPa 0,0 l/m 0 min 0 min 0,0 UV-I 16 W/m 0,0 km/h (0 Bft)
28.02.2014 17:52 8,3 C 6,7 C 77 % 999,2 hPa 0,0 l/m 0 min 0 min 0,0 UV-I 16 W/m 7,7 km/h (2 Bft)
28.02.2014 17:54 8,2 C 6,7 C 76 % 999,2 hPa 0,0 l/m 0 min 0 min 0,0 UV-I 14 W/m 10,3 km/h (2 Bft)
28.02.2014 17:56 8,2 C 6,7 C 76 % 999,2 hPa 0,0 l/m 0 min 0 min 0,0 UV-I 11 W/m 0,0 km/h (0 Bft)
28.02.2014 17:58 8,2 C 6,7 C 76 % 999,2 hPa 0,0 l/m 0 min 0 min 0,0 UV-I 9 W/m 7,7 km/h (2 Bft)
28.02.2014 18:00 8,2 C 6,7 C 76 % 999,2 hPa 0,0 l/m 0 min 0 min 0,0 UV-I 9 W/m 7,7 km/h (2 Bft)
28.02.2014 18:02 8,2 C 6,7 C 79 % 999,1 hPa 0,0 l/m 0 min 0 min 0,0 UV-I 9 W/m 5,1 km/h (1 Bft)
28.02.2014 18:04 8,2 C 6,7 C 80 % 999,2 hPa 0,0 l/m 0 min 0 min 0,0 UV-I 9 W/m 7,7 km/h (2 Bft)
28.02.2014 18:06 8,2 C 6,7 C 79 % 999,2 hPa 0,0 l/m 0 min 0 min 0,0 UV-I 7 W/m 5,1 km/h (1 Bft)
28.02.2014 18:08 8,2 C 6,7 C 79 % 999,2 hPa 0,0 l/m 0 min 0 min 0,0 UV-I 5 W/m 10,3 km/h (2 Bft)
28.02.2014 18:10 8,2 C 6,7 C 79 % 999,2 hPa 0,0 l/m 0 min 0 min 0,0 UV-I 5 W/m 10,3 km/h (2 Bft)
28.02.2014 18:12 8,1 C 6,7 C 76 % 999,2 hPa 0,0 l/m 0 min 0 min 0,0 UV-I 0 W/m 10,3 km/h (2 Bft)
28.02.2014 18:14 8,1 C 6,7 C 76 % 999,2 hPa 0,0 l/m 0 min 0 min 0,0 UV-I 0 W/m 7,7 km/h (2 Bft)
28.02.2014 18:16 8,1 C 6,7 C 76 % 999,2 hPa 0,0 l/m 0 min 0 min 0,0 UV-I 0 W/m 10,3 km/h (2 Bft)
28.02.2014 18:18 8,1 C 6,7 C 76 % 999,2 hPa 0,0 l/m 0 min 0 min 0,0 UV-I 0 W/m 5,1 km/h (1 Bft)
28.02.2014 18:20 8,1 C 6,7 C 77 % 999,2 hPa 0,0 l/m 0 min 0 min 0,0 UV-I 0 W/m 0,0 km/h (0 Bft)
28.02.2014 18:22 8,1 C 6,7 C 76 % 999,3 hPa 0,0 l/m 0 min 0 min 0,0 UV-I 0 W/m 20,6 km/h (4 Bft)
28.02.2014 18:24 8,0 C 6,7 C 76 % 999,3 hPa 0,0 l/m 0 min 0 min 0,0 UV-I 0 W/m 12,9 km/h (3 Bft)
28.02.2014 18:26 8,0 C 6,7 C 76 % 999,3 hPa 0,0 l/m 0 min 0 min 0,0 UV-I 0 W/m 10,3 km/h (2 Bft)
28.02.2014 18:28 8,0 C 6,7 C 77 % 999,3 hPa 0,0 l/m 0 min 0 min 0,0 UV-I 0 W/m 10,3 km/h (2 Bft)
28.02.2014 18:30 8,0 C 6,7 C 77 % 999,3 hPa 0,0 l/m 0 min 0 min 0,0 UV-I 0 W/m 5,1 km/h (1 Bft)
28.02.2014 18:32 8,0 C 6,1 C 77 % 999,2 hPa 0,0 l/m 0 min 0 min 0,0 UV-I 0 W/m 5,1 km/h (1 Bft)
28.02.2014 18:34 8,0 C 6,1 C 77 % 999,2 hPa 0,0 l/m 0 min 0 min 0,0 UV-I 0 W/m 2,6 km/h (1 Bft)
28.02.2014 18:36 7,9 C 6,1 C 77 % 999,2 hPa 0,0 l/m 0 min 0 min 0,0 UV-I 0 W/m 7,7 km/h (2 Bft)
28.02.2014 18:38 7,9 C 6,1 C 77 % 999,3 hPa 0,0 l/m 0 min 0 min 0,0 UV-I 0 W/m 7,7 km/h (2 Bft)
28.02.2014 18:40 7,9 C 6,1 C 77 % 999,2 hPa 0,0 l/m 0 min 0 min 0,0 UV-I 0 W/m 5,1 km/h (1 Bft)
28.02.2014 18:42 7,9 C 6,1 C 77 % 999,3 hPa 0,0 l/m 0 min 0 min 0,0 UV-I 0 W/m 5,1 km/h (1 Bft)
28.02.2014 18:44 7,9 C 6,1 C 77 % 999,2 hPa 0,0 l/m 0 min 0 min 0,0 UV-I 0 W/m 2,6 km/h (1 Bft)
28.02.2014 18:46 7,9 C 6,1 C 77 % 999,3 hPa 0,0 l/m 0 min 0 min 0,0 UV-I 0 W/m 0,0 km/h (0 Bft)
28.02.2014 18:48 7,9 C 6,1 C 78 % 999,3 hPa 0,0 l/m 0 min 0 min 0,0 UV-I 0 W/m 2,6 km/h (1 Bft)
28.02.2014 18:50 7,8 C 6,1 C 78 % 999,3 hPa 0,0 l/m 0 min 0 min 0,0 UV-I 0 W/m 15,4 km/h (3 Bft)
28.02.2014 18:52 7,8 C 6,1 C 77 % 999,3 hPa 0,0 l/m 0 min 0 min 0,0 UV-I 0 W/m 12,9 km/h (3 Bft)
28.02.2014 18:54 7,8 C 6,1 C 77 % 999,3 hPa 0,0 l/m 0 min 0 min 0,0 UV-I 0 W/m 15,4 km/h (3 Bft)
28.02.2014 18:56 7,8 C 6,1 C 77 % 999,3 hPa 0,0 l/m 0 min 0 min 0,0 UV-I 0 W/m 7,7 km/h (2 Bft)
28.02.2014 18:58 7,8 C 6,1 C 77 % 999,3 hPa 0,0 l/m 0 min 0 min 0,0 UV-I 0 W/m 7,7 km/h (2 Bft)
28.02.2014 19:00 7,8 C 6,1 C 77 % 999,3 hPa 0,0 l/m 0 min 0 min 0,0 UV-I 0 W/m 7,7 km/h (2 Bft)
28.02.2014 19:02 7,8 C 6,1 C 77 % 999,5 hPa 0,0 l/m 0 min 0 min 0,0 UV-I 0 W/m 7,7 km/h (2 Bft)
28.02.2014 19:04 7,8 C 6,1 C 77 % 999,5 hPa 0,0 l/m 0 min 0 min 0,0 UV-I 0 W/m 7,7 km/h (2 Bft)
28.02.2014 19:06 7,8 C 6,1 C 77 % 999,5 hPa 0,0 l/m 0 min 0 min 0,0 UV-I 0 W/m 12,9 km/h (3 Bft)
28.02.2014 19:08 7,9 C 6,1 C 76 % 999,4 hPa 0,0 l/m 0 min 0 min 0,0 UV-I 0 W/m 12,9 km/h (3 Bft)
28.02.2014 19:10 7,9 C 6,1 C 76 % 999,4 hPa 0,0 l/m 0 min 0 min 0,0 UV-I 0 W/m 0,0 km/h (0 Bft)
28.02.2014 19:12 7,9 C 6,1 C 76 % 999,4 hPa 0,0 l/m 0 min 0 min 0,0 UV-I 0 W/m 7,7 km/h (2 Bft)
28.02.2014 19:14 7,9 C 6,1 C 76 % 999,3 hPa 0,0 l/m 0 min 0 min 0,0 UV-I 0 W/m 7,7 km/h (2 Bft)
28.02.2014 19:16 7,9 C 6,1 C 76 % 999,4 hPa 0,0 l/m 0 min 0 min 0,0 UV-I 0 W/m 10,3 km/h (2 Bft)
28.02.2014 19:18 7,9 C 6,1 C 76 % 999,3 hPa 0,0 l/m 0 min 0 min 0,0 UV-I 0 W/m 18,0 km/h (3 Bft)
28.02.2014 19:20 7,9 C 6,1 C 75 % 999,4 hPa 0,0 l/m 0 min 0 min 0,0 UV-I 0 W/m 12,9 km/h (3 Bft)
28.02.2014 19:22 7,9 C 6,1 C 75 % 999,3 hPa 0,0 l/m 0 min 0 min 0,0 UV-I 0 W/m 12,9 km/h (3 Bft)
28.02.2014 19:24 7,9 C 6,1 C 75 % 999,3 hPa 0,0 l/m 0 min 2 min 0,0 UV-I 0 W/m 12,9 km/h (3 Bft)
28.02.2014 19:26 7,9 C 6,1 C 75 % 999,3 hPa 0,0 l/m 0 min 2 min 0,0 UV-I 0 W/m 10,3 km/h (2 Bft)
28.02.2014 19:28 7,9 C 6,1 C 75 % 999,3 hPa 0,0 l/m 0 min 0 min 0,0 UV-I 0 W/m 25,7 km/h (4 Bft)
28.02.2014 19:30 7,9 C 6,1 C 75 % 999,4 hPa 0,0 l/m 0 min 0 min 0,0 UV-I 0 W/m 10,3 km/h (2 Bft)
28.02.2014 19:32 7,9 C 6,1 C 75 % 999,4 hPa 0,0 l/m 0 min 0 min 0,0 UV-I 0 W/m 15,4 km/h (3 Bft)
28.02.2014 19:34 7,9 C 6,1 C 75 % 999,4 hPa 0,0 l/m 0 min 0 min 0,0 UV-I 0 W/m 12,9 km/h (3 Bft)
28.02.2014 19:36 7,9 C 6,1 C 75 % 999,4 hPa 0,0 l/m 0 min 0 min 0,0 UV-I 0 W/m 12,9 km/h (3 Bft)
28.02.2014 19:38 7,9 C 6,1 C 75 % 999,4 hPa 0,0 l/m 0 min 0 min 0,0 UV-I 0 W/m 10,3 km/h (2 Bft)
28.02.2014 19:40 7,9 C 6,1 C 75 % 999,5 hPa 0,0 l/m 0 min 0 min 0,0 UV-I 0 W/m 7,7 km/h (2 Bft)
28.02.2014 19:42 7,8 C 6,1 C 75 % 999,5 hPa 0,0 l/m 0 min 0 min 0,0 UV-I 0 W/m 7,7 km/h (2 Bft)
28.02.2014 19:44 7,8 C 6,1 C 75 % 999,5 hPa 0,0 l/m 0 min 0 min 0,0 UV-I 0 W/m 2,6 km/h (1 Bft)
28.02.2014 19:46 7,8 C 6,1 C 76 % 999,5 hPa 0,0 l/m 0 min 0 min 0,0 UV-I 0 W/m 10,3 km/h (2 Bft)
28.02.2014 19:48 7,8 C 6,1 C 76 % 999,4 hPa 0,0 l/m 0 min 0 min 0,0 UV-I 0 W/m 10,3 km/h (2 Bft)
28.02.2014 19:50 7,8 C 6,1 C 76 % 999,6 hPa 0,0 l/m 0 min 0 min 0,0 UV-I 0 W/m 2,6 km/h (1 Bft)
28.02.2014 19:52 7,8 C 6,1 C 76 % 999,5 hPa 0,0 l/m 0 min 0 min 0,0 UV-I 0 W/m 5,1 km/h (1 Bft)
28.02.2014 19:54 7,7 C 6,1 C 76 % 999,4 hPa 0,0 l/m 0 min 0 min 0,0 UV-I 0 W/m 7,7 km/h (2 Bft)
28.02.2014 19:56 7,7 C 6,1 C 76 % 999,4 hPa 0,0 l/m 0 min 0 min 0,0 UV-I 0 W/m 12,9 km/h (3 Bft)
28.02.2014 19:58 7,7 C 6,1 C 76 % 999,4 hPa 0,0 l/m 0 min 0 min 0,0 UV-I 0 W/m 10,3 km/h (2 Bft)
28.02.2014 20:00 7,7 C 6,1 C 76 % 999,4 hPa 0,0 l/m 0 min 0 min 0,0 UV-I 0 W/m 10,3 km/h (2 Bft)
28.02.2014 20:02 7,7 C 6,1 C 76 % 999,4 hPa 0,0 l/m 0 min 0 min 0,0 UV-I 0 W/m 5,1 km/h (1 Bft)
28.02.2014 20:04 7,7 C 6,1 C 76 % 999,4 hPa 0,0 l/m 0 min 0 min 0,0 UV-I 0 W/m 7,7 km/h (2 Bft)
28.02.2014 20:06 7,7 C 6,1 C 76 % 999,4 hPa 0,0 l/m 0 min 0 min 0,0 UV-I 0 W/m 5,1 km/h (1 Bft)
28.02.2014 20:08 7,7 C 6,1 C 76 % 999,5 hPa 0,0 l/m 0 min 0 min 0,0 UV-I 0 W/m 10,3 km/h (2 Bft)
28.02.2014 20:10 7,7 C 6,1 C 76 % 999,5 hPa 0,0 l/m 0 min 0 min 0,0 UV-I 0 W/m 5,1 km/h (1 Bft)
28.02.2014 20:12 7,7 C 6,1 C 76 % 999,6 hPa 0,0 l/m 0 min 2 min 0,0 UV-I 0 W/m 7,7 km/h (2 Bft)
28.02.2014 20:14 7,7 C 6,1 C 77 % 999,6 hPa 0,0 l/m 0 min 0 min 0,0 UV-I 0 W/m 7,7 km/h (2 Bft)
28.02.2014 20:16 7,7 C 5,6 C 77 % 999,5 hPa 0,0 l/m 0 min 2 min 0,0 UV-I 0 W/m 0,0 km/h (0 Bft)
28.02.2014 20:18 7,6 C 5,6 C 77 % 999,5 hPa 0,0 l/m 0 min 0 min 0,0 UV-I 0 W/m 7,7 km/h (2 Bft)
28.02.2014 20:20 7,6 C 5,6 C 78 % 999,5 hPa 0,0 l/m 0 min 0 min 0,0 UV-I 0 W/m 2,6 km/h (1 Bft)
28.02.2014 20:22 7,6 C 5,6 C 78 % 999,5 hPa 0,0 l/m 0 min 2 min 0,0 UV-I 0 W/m 10,3 km/h (2 Bft)
28.02.2014 20:24 7,6 C 5,6 C 78 % 999,4 hPa 0,0 l/m 0 min 2 min 0,0 UV-I 0 W/m 7,7 km/h (2 Bft)
28.02.2014 20:26 7,6 C 5,6 C 78 % 999,4 hPa 0,0 l/m 0 min 2 min 0,0 UV-I 0 W/m 2,6 km/h (1 Bft)
28.02.2014 20:28 7,5 C 5,6 C 79 % 999,4 hPa 0,0 l/m 0 min 2 min 0,0 UV-I 0 W/m 7,7 km/h (2 Bft)
28.02.2014 20:30 7,5 C 5,0 C 79 % 999,3 hPa 0,0 l/m 0 min 2 min 0,0 UV-I 0 W/m 5,1 km/h (1 Bft)
28.02.2014 20:32 7,4 C 5,0 C 79 % 999,4 hPa 0,0 l/m 0 min 2 min 0,0 UV-I 0 W/m 2,6 km/h (1 Bft)
28.02.2014 20:34 7,4 C 5,0 C 80 % 999,3 hPa 0,0 l/m 0 min 0 min 0,0 UV-I 0 W/m 10,3 km/h (2 Bft)
28.02.2014 20:36 7,4 C 5,0 C 79 % 999,3 hPa 0,0 l/m 0 min 0 min 0,0 UV-I 0 W/m 5,1 km/h (1 Bft)
28.02.2014 20:38 7,4 C 5,0 C 80 % 999,3 hPa 0,0 l/m 0 min 2 min 0,0 UV-I 0 W/m 5,1 km/h (1 Bft)
28.02.2014 20:40 7,4 C 5,0 C 80 % 999,3 hPa 0,0 l/m 0 min 2 min 0,0 UV-I 0 W/m 5,1 km/h (1 Bft)
28.02.2014 20:42 7,3 C 5,0 C 80 % 999,3 hPa 0,0 l/m 0 min 0 min 0,0 UV-I 0 W/m 10,3 km/h (2 Bft)
28.02.2014 20:44 7,3 C 5,0 C 80 % 999,3 hPa 0,0 l/m 0 min 2 min 0,0 UV-I 0 W/m 10,3 km/h (2 Bft)
28.02.2014 20:46 7,3 C 5,0 C 80 % 999,3 hPa 0,0 l/m 0 min 2 min 0,0 UV-I 0 W/m 7,7 km/h (2 Bft)
28.02.2014 20:48 7,4 C 5,0 C 80 % 999,3 hPa 0,0 l/m 0 min 2 min 0,0 UV-I 0 W/m 10,3 km/h (2 Bft)
28.02.2014 20:50 7,4 C 5,6 C 80 % 999,3 hPa 0,0 l/m 0 min 2 min 0,0 UV-I 0 W/m 10,3 km/h (2 Bft)
28.02.2014 20:52 7,3 C 5,6 C 80 % 999,3 hPa 0,0 l/m 0 min 2 min 0,0 UV-I 0 W/m 2,6 km/h (1 Bft)
28.02.2014 20:54 7,3 C 5,0 C 81 % 999,3 hPa 0,0 l/m 0 min 2 min 0,0 UV-I 0 W/m 10,3 km/h (2 Bft)
28.02.2014 20:56 7,3 C 5,0 C 81 % 999,3 hPa 0,0 l/m 0 min 2 min 0,0 UV-I 0 W/m 7,7 km/h (2 Bft)
28.02.2014 20:58 7,3 C 5,0 C 81 % 999,3 hPa 0,0 l/m 0 min 2 min 0,0 UV-I 0 W/m 2,6 km/h (1 Bft)
28.02.2014 21:00 7,3 C 5,0 C 81 % 999,3 hPa 0,0 l/m 0 min 2 min 0,0 UV-I 0 W/m 7,7 km/h (2 Bft)
28.02.2014 21:02 7,3 C 5,0 C 81 % 999,3 hPa 0,0 l/m 0 min 2 min 0,0 UV-I 0 W/m 5,1 km/h (1 Bft)
28.02.2014 21:04 7,3 C 5,0 C 82 % 999,3 hPa 0,0 l/m 0 min 2 min 0,0 UV-I 0 W/m 5,1 km/h (1 Bft)
28.02.2014 21:06 7,2 C 5,0 C 82 % 999,2 hPa 0,2 l/m 0 min 2 min 0,0 UV-I 0 W/m 5,1 km/h (1 Bft)
28.02.2014 21:08 7,2 C 5,0 C 82 % 999,2 hPa 0,0 l/m 0 min 2 min 0,0 UV-I 0 W/m 18,0 km/h (3 Bft)
28.02.2014 21:10 7,2 C 5,0 C 83 % 999,3 hPa 0,0 l/m 0 min 2 min 0,0 UV-I 0 W/m 15,4 km/h (3 Bft)
28.02.2014 21:12 7,2 C 5,0 C 83 % 999,3 hPa 0,0 l/m 0 min 2 min 0,0 UV-I 0 W/m 15,4 km/h (3 Bft)
28.02.2014 21:14 7,2 C 5,0 C 83 % 999,3 hPa 0,0 l/m 0 min 2 min 0,0 UV-I 0 W/m 7,7 km/h (2 Bft)
28.02.2014 21:16 7,1 C 5,0 C 83 % 999,3 hPa 0,0 l/m 0 min 2 min 0,0 UV-I 0 W/m 2,6 km/h (1 Bft)
28.02.2014 21:18 7,1 C 5,0 C 83 % 999,3 hPa 0,0 l/m 0 min 2 min 0,0 UV-I 0 W/m 7,7 km/h (2 Bft)
28.02.2014 21:20 7,1 C 4,4 C 83 % 999,4 hPa 0,0 l/m 0 min 2 min 0,0 UV-I 0 W/m 15,4 km/h (3 Bft)
28.02.2014 21:22 7,1 C 4,4 C 83 % 999,4 hPa 0,0 l/m 0 min 2 min 0,0 UV-I 0 W/m 10,3 km/h (2 Bft)
28.02.2014 21:24 7,1 C 4,4 C 84 % 999,4 hPa 0,0 l/m 0 min 2 min 0,0 UV-I 0 W/m 15,4 km/h (3 Bft)
28.02.2014 21:26 7,1 C 4,4 C 84 % 999,4 hPa 0,0 l/m 0 min 2 min 0,0 UV-I 0 W/m 5,1 km/h (1 Bft)
28.02.2014 21:28 7,0 C 4,4 C 84 % 999,4 hPa 0,0 l/m 0 min 2 min 0,0 UV-I 0 W/m 10,3 km/h (2 Bft)
28.02.2014 21:30 7,0 C 4,4 C 84 % 999,4 hPa 0,0 l/m 0 min 2 min 0,0 UV-I 0 W/m 10,3 km/h (2 Bft)
28.02.2014 21:32 7,0 C 4,4 C 84 % 999,4 hPa 0,0 l/m 0 min 2 min 0,0 UV-I 0 W/m 15,4 km/h (3 Bft)
28.02.2014 21:34 6,9 C 4,4 C 84 % 999,4 hPa 0,0 l/m 0 min 2 min 0,0 UV-I 0 W/m 7,7 km/h (2 Bft)
28.02.2014 21:36 6,9 C 4,4 C 84 % 999,4 hPa 0,0 l/m 0 min 0 min 0,0 UV-I 0 W/m 15,4 km/h (3 Bft)
28.02.2014 21:38 6,9 C 4,4 C 84 % 999,4 hPa 0,0 l/m 0 min 0 min 0,0 UV-I 0 W/m 2,6 km/h (1 Bft)
28.02.2014 21:40 6,9 C 4,4 C 84 % 999,4 hPa 0,0 l/m 0 min 0 min 0,0 UV-I 0 W/m 10,3 km/h (2 Bft)
28.02.2014 21:42 6,9 C 4,4 C 84 % 999,4 hPa 0,0 l/m 0 min 0 min 0,0 UV-I 0 W/m 7,7 km/h (2 Bft)
28.02.2014 21:44 6,9 C 4,4 C 84 % 999,3 hPa 0,0 l/m 0 min 0 min 0,0 UV-I 0 W/m 12,9 km/h (3 Bft)
28.02.2014 21:46 6,9 C 4,4 C 84 % 999,3 hPa 0,0 l/m 0 min 0 min 0,0 UV-I 0 W/m 5,1 km/h (1 Bft)
28.02.2014 21:48 6,9 C 4,4 C 84 % 999,4 hPa 0,0 l/m 0 min 0 min 0,0 UV-I 0 W/m 5,1 km/h (1 Bft)
28.02.2014 21:50 6,9 C 4,4 C 84 % 999,4 hPa 0,0 l/m 0 min 0 min 0,0 UV-I 0 W/m 7,7 km/h (2 Bft)
28.02.2014 21:52 7,0 C 4,4 C 84 % 999,5 hPa 0,0 l/m 0 min 0 min 0,0 UV-I 0 W/m 10,3 km/h (2 Bft)
28.02.2014 21:54 7,0 C 4,4 C 84 % 999,5 hPa 0,0 l/m 0 min 0 min 0,0 UV-I 0 W/m 12,9 km/h (3 Bft)
28.02.2014 21:56 7,1 C 4,4 C 84 % 999,5 hPa 0,0 l/m 0 min 0 min 0,0 UV-I 0 W/m 12,9 km/h (3 Bft)
28.02.2014 21:58 7,1 C 5,0 C 83 % 999,5 hPa 0,0 l/m 0 min 0 min 0,0 UV-I 0 W/m 10,3 km/h (2 Bft)
28.02.2014 22:00 7,1 C 5,0 C 83 % 999,5 hPa 0,0 l/m 0 min 0 min 0,0 UV-I 0 W/m 12,9 km/h (3 Bft)
28.02.2014 22:02 7,1 C 5,0 C 83 % 999,5 hPa 0,0 l/m 0 min 0 min 0,0 UV-I 0 W/m 2,6 km/h (1 Bft)
28.02.2014 22:04 7,2 C 5,0 C 83 % 999,5 hPa 0,0 l/m 0 min 0 min 0,0 UV-I 0 W/m 5,1 km/h (1 Bft)
28.02.2014 22:06 7,1 C 5,0 C 83 % 999,5 hPa 0,0 l/m 0 min 0 min 0,0 UV-I 0 W/m 2,6 km/h (1 Bft)
28.02.2014 22:08 7,1 C 5,0 C 83 % 999,5 hPa 0,0 l/m 0 min 0 min 0,0 UV-I 0 W/m 10,3 km/h (2 Bft)
28.02.2014 22:10 7,1 C 5,0 C 83 % 999,5 hPa 0,0 l/m 0 min 0 min 0,0 UV-I 0 W/m 7,7 km/h (2 Bft)
28.02.2014 22:12 7,1 C 5,0 C 83 % 999,6 hPa 0,0 l/m 0 min 0 min 0,0 UV-I 0 W/m 7,7 km/h (2 Bft)
28.02.2014 22:14 7,1 C 5,0 C 83 % 999,5 hPa 0,0 l/m 0 min 0 min 0,0 UV-I 0 W/m 10,3 km/h (2 Bft)
28.02.2014 22:16 7,2 C 5,0 C 83 % 999,6 hPa 0,0 l/m 0 min 0 min 0,0 UV-I 0 W/m 5,1 km/h (1 Bft)
28.02.2014 22:18 7,1 C 5,0 C 83 % 999,5 hPa 0,0 l/m 0 min 0 min 0,0 UV-I 0 W/m 7,7 km/h (2 Bft)
28.02.2014 22:20 7,1 C 5,0 C 83 % 999,6 hPa 0,0 l/m 0 min 0 min 0,0 UV-I 0 W/m 12,9 km/h (3 Bft)
28.02.2014 22:22 7,1 C 5,0 C 83 % 999,6 hPa 0,0 l/m 0 min 0 min 0,0 UV-I 0 W/m 18,0 km/h (3 Bft)
28.02.2014 22:24 7,1 C 5,0 C 83 % 999,5 hPa 0,0 l/m 0 min 0 min 0,0 UV-I 0 W/m 2,6 km/h (1 Bft)
28.02.2014 22:26 7,1 C 5,0 C 83 % 999,5 hPa 0,0 l/m 0 min 0 min 0,0 UV-I 0 W/m 10,3 km/h (2 Bft)
28.02.2014 22:28 7,2 C 5,0 C 83 % 999,5 hPa 0,0 l/m 0 min 0 min 0,0 UV-I 0 W/m 0,0 km/h (0 Bft)
28.02.2014 22:30 7,1 C 5,0 C 83 % 999,6 hPa 0,0 l/m 0 min 0 min 0,0 UV-I 0 W/m 12,9 km/h (3 Bft)
28.02.2014 22:32 7,1 C 5,0 C 83 % 999,5 hPa 0,0 l/m 0 min 0 min 0,0 UV-I 0 W/m 5,1 km/h (1 Bft)
28.02.2014 22:34 7,1 C 5,0 C 83 % 999,5 hPa 0,0 l/m 0 min 0 min 0,0 UV-I 0 W/m 10,3 km/h (2 Bft)
28.02.2014 22:36 7,1 C 5,0 C 83 % 999,6 hPa 0,0 l/m 0 min 0 min 0,0 UV-I 0 W/m 7,7 km/h (2 Bft)
28.02.2014 22:38 7,1 C 5,0 C 83 % 999,6 hPa 0,0 l/m 0 min 0 min 0,0 UV-I 0 W/m 15,4 km/h (3 Bft)
28.02.2014 22:40 7,1 C 5,0 C 83 % 999,6 hPa 0,0 l/m 0 min 0 min 0,0 UV-I 0 W/m 15,4 km/h (3 Bft)
28.02.2014 22:42 7,1 C 5,0 C 83 % 999,7 hPa 0,0 l/m 0 min 0 min 0,0 UV-I 0 W/m 5,1 km/h (1 Bft)
28.02.2014 22:44 7,1 C 5,0 C 83 % 999,7 hPa 0,0 l/m 0 min 0 min 0,0 UV-I 0 W/m 7,7 km/h (2 Bft)
28.02.2014 22:46 7,1 C 5,0 C 83 % 999,7 hPa 0,0 l/m 0 min 0 min 0,0 UV-I 0 W/m 7,7 km/h (2 Bft)
28.02.2014 22:48 7,1 C 5,0 C 83 % 999,7 hPa 0,0 l/m 0 min 0 min 0,0 UV-I 0 W/m 5,1 km/h (1 Bft)
28.02.2014 22:50 7,1 C 5,0 C 84 % 999,7 hPa 0,0 l/m 0 min 0 min 0,0 UV-I 0 W/m 7,7 km/h (2 Bft)
28.02.2014 22:52 7,0 C 5,0 C 84 % 999,8 hPa 0,0 l/m 0 min 0 min 0,0 UV-I 0 W/m 12,9 km/h (3 Bft)
28.02.2014 22:54 7,0 C 5,0 C 84 % 999,7 hPa 0,0 l/m 0 min 0 min 0,0 UV-I 0 W/m 12,9 km/h (3 Bft)
28.02.2014 22:56 7,0 C 5,6 C 84 % 999,7 hPa 0,0 l/m 0 min 0 min 0,0 UV-I 0 W/m 7,7 km/h (2 Bft)
28.02.2014 22:58 7,0 C 5,6 C 84 % 999,7 hPa 0,0 l/m 0 min 0 min 0,0 UV-I 0 W/m 12,9 km/h (3 Bft)
28.02.2014 23:00 7,0 C 5,6 C 84 % 999,7 hPa 0,0 l/m 0 min 0 min 0,0 UV-I 0 W/m 12,9 km/h (3 Bft)
28.02.2014 23:02 7,0 C 5,6 C 84 % 999,7 hPa 0,0 l/m 0 min 0 min 0,0 UV-I 0 W/m 10,3 km/h (2 Bft)
28.02.2014 23:04 7,0 C 5,6 C 84 % 999,6 hPa 0,0 l/m 0 min 0 min 0,0 UV-I 0 W/m 7,7 km/h (2 Bft)
28.02.2014 23:06 7,0 C 5,6 C 84 % 999,7 hPa 0,0 l/m 0 min 0 min 0,0 UV-I 0 W/m 5,1 km/h (1 Bft)
28.02.2014 23:08 6,9 C 5,6 C 84 % 999,7 hPa 0,0 l/m 0 min 0 min 0,0 UV-I 0 W/m 7,7 km/h (2 Bft)
28.02.2014 23:10 6,9 C 5,6 C 84 % 999,6 hPa 0,0 l/m 0 min 0 min 0,0 UV-I 0 W/m 2,6 km/h (1 Bft)
28.02.2014 23:12 6,9 C 5,6 C 84 % 999,8 hPa 0,0 l/m 0 min 0 min 0,0 UV-I 0 W/m 7,7 km/h (2 Bft)
28.02.2014 23:14 6,9 C 5,6 C 84 % 999,7 hPa 0,0 l/m 0 min 0 min 0,0 UV-I 0 W/m 10,3 km/h (2 Bft)
28.02.2014 23:16 6,9 C 5,6 C 84 % 999,7 hPa 0,0 l/m 0 min 0 min 0,0 UV-I 0 W/m 5,1 km/h (1 Bft)
28.02.2014 23:18 6,9 C 5,6 C 84 % 999,8 hPa 0,0 l/m 0 min 0 min 0,0 UV-I 0 W/m 0,0 km/h (0 Bft)
28.02.2014 23:20 6,9 C 5,6 C 85 % 999,8 hPa 0,0 l/m 0 min 0 min 0,0 UV-I 0 W/m 7,7 km/h (2 Bft)
28.02.2014 23:22 6,9 C 5,6 C 84 % 999,8 hPa 0,0 l/m 0 min 0 min 0,0 UV-I 0 W/m 7,7 km/h (2 Bft)
28.02.2014 23:24 6,9 C 5,6 C 85 % 999,8 hPa 0,0 l/m 0 min 0 min 0,0 UV-I 0 W/m 7,7 km/h (2 Bft)
28.02.2014 23:26 6,9 C 5,6 C 85 % 999,7 hPa 0,0 l/m 0 min 0 min 0,0 UV-I 0 W/m 7,7 km/h (2 Bft)
28.02.2014 23:28 6,9 C 5,6 C 85 % 999,6 hPa 0,0 l/m 0 min 0 min 0,0 UV-I 0 W/m 7,7 km/h (2 Bft)
28.02.2014 23:30 6,9 C 5,6 C 85 % 999,6 hPa 0,0 l/m 0 min 0 min 0,0 UV-I 0 W/m 7,7 km/h (2 Bft)
28.02.2014 23:32 6,9 C 5,6 C 85 % 999,6 hPa 0,0 l/m 0 min 0 min 0,0 UV-I 0 W/m 0,0 km/h (0 Bft)
28.02.2014 23:34 6,9 C 5,6 C 85 % 999,6 hPa 0,0 l/m 0 min 0 min 0,0 UV-I 0 W/m 7,7 km/h (2 Bft)
28.02.2014 23:36 6,9 C 5,6 C 85 % 999,6 hPa 0,0 l/m 0 min 0 min 0,0 UV-I 0 W/m 7,7 km/h (2 Bft)
28.02.2014 23:38 6,9 C 5,6 C 85 % 999,7 hPa 0,0 l/m 0 min 0 min 0,0 UV-I 0 W/m 5,1 km/h (1 Bft)
28.02.2014 23:40 6,9 C 5,6 C 85 % 999,7 hPa 0,0 l/m 0 min 0 min 0,0 UV-I 0 W/m 0,0 km/h (0 Bft)
28.02.2014 23:42 6,9 C 5,6 C 85 % 999,8 hPa 0,0 l/m 0 min 0 min 0,0 UV-I 0 W/m 2,6 km/h (1 Bft)
28.02.2014 23:44 6,9 C 5,6 C 85 % 999,8 hPa 0,0 l/m 0 min 0 min 0,0 UV-I 0 W/m 0,0 km/h (0 Bft)
28.02.2014 23:46 6,9 C 5,6 C 85 % 999,8 hPa 0,0 l/m 0 min 0 min 0,0 UV-I 0 W/m 7,7 km/h (2 Bft)
28.02.2014 23:48 6,9 C 5,6 C 85 % 999,8 hPa 0,0 l/m 0 min 0 min 0,0 UV-I 0 W/m 2,6 km/h (1 Bft)
28.02.2014 23:50 6,9 C 5,6 C 85 % 999,7 hPa 0,0 l/m 0 min 0 min 0,0 UV-I 0 W/m 7,7 km/h (2 Bft)
28.02.2014 23:52 6,9 C 5,6 C 85 % 999,7 hPa 0,0 l/m 0 min 0 min 0,0 UV-I 0 W/m 0,0 km/h (0 Bft)
28.02.2014 23:54 6,9 C 5,6 C 85 % 999,7 hPa 0,0 l/m 0 min 0 min 0,0 UV-I 0 W/m 2,6 km/h (1 Bft)
28.02.2014 23:56 6,9 C 5,6 C 85 % 999,7 hPa 0,0 l/m 0 min 0 min 0,0 UV-I 0 W/m 12,9 km/h (3 Bft)
28.02.2014 23:58 6,9 C 5,6 C 85 % 999,8 hPa 0,0 l/m 0 min 0 min 0,0 UV-I 0 W/m 5,1 km/h (1 Bft)
_ Min-Zeit 03:28 02:40 14:06 17:36 - - - - - 00:02
Minimum _ 2,2 C 0,6 C 68 % 999,1 hPa - - - - - 0,0 km/h (0 Bft)
_ Max-Zeit 14:04 14:52 09:08 00:00 00:36 08:34 04:42 13:10 12:22 11:02
Maximum _ 9,9 C 9,4 C 98 % 1007,8 hPa 0,2 l/m 2 min 2 min 1,0 UV-I 621 W/m 25,7 km/h
S-SO (4 Bft)
Durchschnitt _ 6,0 C 4,5 C 86 % 1002,1 hPa #0,4 l/m #3:26 h #1:54 h 0,6 UV-I 175 W/m 7,7 km/h (2 Bft)
© 2014 W. Hausmann